Data for 06/15/2011

Time Sea-Level Adjusted Pressure Absolute Pressure Temperature Relative Humidity Dew Point Precipitation   
(mb) (inHg) (mb) (inHg) (C) (F) (%) (C) (F) (mm) (in)
00:01 1020 30.12 849 25.07 5.8 42.5 80 2.7 36.8 6.198 0.244
00:02 1020 30.12 849 25.07 5.9 42.6 79 2.6 36.7 6.294 0.248
00:03 1020 30.12 849 25.07 5.8 42.5 79 2.5 36.4 6.198 0.244
00:04 1020 30.12 849 25.07 5.6 42.2 80 2.5 36.5 5.994 0.236
00:05 1020 30.12 849 25.07 5.5 42 81 2.5 36.6 5.864 0.231
00:06 1020 30.12 849 25.07 5.4 41.7 81 2.4 36.4 5.779 0.228
00:07 1020 30.12 849 25.07 5.2 41.3 83 2.5 36.5 5.615 0.221
00:08 1020 30.12 849 25.07 5.1 41.1 83 2.5 36.4 5.434 0.214
00:09 1020 30.12 849 25.07 4.9 40.8 84 2.4 36.3 5.304 0.209
00:10 1020 30.12 849 25.07 4.8 40.7 84 2.3 36.2 5.225 0.206
00:11 1020 30.12 849 25.07 4.8 40.7 85 2.5 36.4 5.214 0.205
00:12 1020 30.12 849 25.07 4.9 40.9 84 2.5 36.4 5.378 0.212
00:13 1020 30.12 849 25.07 5 41 84 2.5 36.5 5.451 0.215
00:14 1020 30.12 849 25.07 5.1 41.2 83 2.5 36.5 5.531 0.218
00:15 1020 30.12 849 25.07 5.2 41.3 83 2.5 36.5 5.604 0.221
00:16 1020 30.12 849 25.07 5.3 41.5 81 2.3 36.2 5.649 0.222
00:17 1020 30.12 849 25.07 5.3 41.5 81 2.4 36.3 5.683 0.224
00:18 1020 30.12 849 25.07 5.3 41.5 81 2.2 36 5.649 0.222
00:19 1020 30.12 849 25.07 5.2 41.4 80 2.1 35.9 5.621 0.221
00:20 1020 30.12 849 25.07 5.1 41.2 81 2.1 35.9 5.514 0.217
00:21 1020 30.12 849 25.07 5 41 81 2.1 35.7 5.406 0.213
00:22 1020 30.12 849 25.07 4.9 40.9 82 2.1 35.7 5.31 0.209
00:23 1020 30.12 849 25.07 4.8 40.7 82 2 35.6 5.219 0.205
00:24 1020 30.12 849 25.07 4.8 40.7 81 1.9 35.4 5.185 0.204
00:25 1020 30.12 849 25.07 4.8 40.6 81 1.7 35.1 5.123 0.202
00:26 1020 30.12 849 25.07 4.7 40.4 81 1.7 35 5.01 0.197
00:27 1020 30.12 849 25.07 4.6 40.3 81 1.7 35 4.959 0.195
00:28 1020 30.12 849 25.07 4.6 40.3 81 1.7 35.1 5.033 0.198
00:29 1020 30.12 849 25.07 4.8 40.7 80 1.7 35.1 5.236 0.206
00:30 1020 30.12 849 25.07 5 40.9 80 1.8 35.3 5.304 0.209
00:31 1020 30.12 849 25.07 4.9 40.8 80 1.8 35.2 5.253 0.207
00:32 1020 30.12 849 25.07 4.7 40.5 81 1.8 35.2 5.14 0.202
00:33 1020 30.12 849 25.07 4.6 40.3 82 1.8 35.2 4.993 0.197
00:34 1020 30.12 849 25.07 4.7 40.5 81 1.8 35.2 5.108 0.201
00:35 1020 30.12 849 25.07 4.9 40.8 80 1.8 35.2 5.255 0.207
00:36 1020 30.12 849 25.07 5 41 80 1.8 35.2 5.369 0.211
00:37 1020 30.12 849 25.07 5.1 41.2 79 1.9 35.4 5.499 0.216
00:38 1020 30.12 849 25.07 5.2 41.4 79 1.9 35.4 5.652 0.223
00:39 1020 30.12 849 25.07 5.4 41.7 79 2 35.6 5.754 0.227
00:40 1020 30.12 849 25.07 5.5 41.8 79 2 35.7 5.829 0.229
00:41 1020 30.12 849 25.07 5.5 41.8 79 2 35.7 5.84 0.23
00:42 1020 30.12 849 25.07 5.4 41.8 79 2.1 35.7 5.823 0.229
00:43 1020 30.12 849 25.07 5.4 41.8 79 2.1 35.7 5.841 0.23
00:44 1020 30.12 849 25.07 5.4 41.8 78 2 35.6 5.829 0.229
00:45 1020 30.12 849 25.07 5.6 42.1 77 2 35.5 5.983 0.236
00:46 1020 30.12 849 25.07 5.9 42.6 76 2.1 35.7 6.284 0.247
00:47 1020 30.12 849 25.07 6 42.9 76 2.1 35.8 6.448 0.254
00:48 1020 30.12 849 25.07 6 42.8 76 2.1 35.7 6.375 0.251
00:49 1020 30.12 849 25.07 5.9 42.7 77 2.2 35.9 6.273 0.247
00:50 1020 30.12 849 25.07 5.8 42.5 77 2.2 36 6.177 0.243
00:51 1020 30.12 849 25.07 5.7 42.3 78 2.2 35.9 6.143 0.242
00:52 1020 30.12 849 25.07 5.7 42.3 78 2.2 35.9 6.092 0.24
00:53 1020 30.12 849 25.07 5.5 41.9 79 2.2 35.9 5.9 0.232
00:54 1020 30.12 849 25.07 5.3 41.6 80 2.1 35.8 5.72 0.225
00:55 1020 30.12 849 25.07 5.2 41.3 80 2 35.7 5.624 0.221
00:56 1020 30.12 849 25.07 5.2 41.3 80 2 35.6 5.585 0.22
00:57 1020 30.12 849 25.07 5.3 41.5 79 2 35.6 5.671 0.223
00:58 1020 30.12 849 25.07 5.4 41.7 79 2 35.6 5.801 0.228
00:59 1020 30.12 849 25.07 5.6 42 78 2 35.6 5.943 0.234
01:00 1020 30.12 849 25.07 5.7 42.2 77 2 35.6 6.091 0.24
01:01 1020 30.12 849 25.07 5.9 42.5 77 2.1 35.8 6.232 0.245
01:02 1020 30.12 849 25.07 5.9 42.6 77 2.1 35.8 6.328 0.249
01:03 1020 30.12 849 25.07 6 42.7 76 2.1 35.9 6.374 0.251
01:04 1020 30.12 849 25.07 6 42.8 76 2.2 35.9 6.369 0.251
01:05 1020 30.12 849 25.07 6 42.9 76 2.2 35.9 6.397 0.252
01:06 1020 30.12 849 25.07 6.1 43 76 2.1 35.8 6.454 0.254
01:07 1020 30.12 849 25.07 6.1 43 75 2.1 35.8 6.545 0.258
01:08 1020 30.12 849 25.07 6.1 43 75 2.1 35.7 6.517 0.257
01:09 1020 30.12 849 25.07 6.2 43.1 75 2 35.7 6.574 0.259
01:10 1020 30.12 849 25.07 6.2 43.2 75 2.1 35.9 6.613 0.26
01:11 1020 30.12 849 25.07 6.2 43.2 75 2.1 35.7 6.591 0.259
01:12 1020 30.12 849 25.07 6.2 43.1 75 2 35.6 6.569 0.259
01:13 1020 30.12 849 25.07 6.2 43.1 74 2 35.5 6.586 0.259
01:14 1020 30.12 849 25.07 6.2 43.1 75 2.1 35.7 6.569 0.259
01:15 1020 30.12 849 25.07 6.1 43 75 2 35.6 6.529 0.257
01:16 1020 30.12 849 25.07 6.1 42.9 75 2 35.6 6.473 0.255
01:17 1020 30.12 849 25.07 6 42.9 75 2 35.5 6.495 0.256
01:18 1020 30.12 849 25.07 6.1 43 75 1.9 35.4 6.513 0.256
01:19 1020 30.12 849 25.07 6.2 43.1 74 1.9 35.4 6.558 0.258
01:20 1020 30.12 849 25.07 6.2 43.1 74 2 35.5 6.569 0.259
01:21 1020 30.12 849 25.07 6.1 43.1 75 2 35.6 6.524 0.257
01:22 1020 30.12 849 25.07 6.1 42.9 75 2.1 35.7 6.468 0.255
01:23 1020 30.12 849 25.07 5.9 42.7 76 2 35.7 6.366 0.251
01:24 1020 30.12 849 25.07 5.7 42.3 77 1.9 35.5 6.157 0.242
01:25 1020 30.12 849 25.07 5.4 41.7 78 1.9 35.5 5.8 0.228
01:26 1020 30.12 849 25.07 5.2 41.3 80 1.9 35.5 5.596 0.22
01:27 1020 30.12 849 25.07 5.2 41.3 79 1.8 35.3 5.613 0.221
01:28 1020 30.12 849 25.07 5.2 41.4 79 1.8 35.2 5.625 0.221
01:29 1020 30.12 849 25.07 5.2 41.3 79 1.8 35.2 5.585 0.22
01:30 1020 30.12 849 25.07 5.1 41.2 79 1.9 35.4 5.489 0.216
01:31 1020 30.12 849 25.07 5 40.9 80 1.8 35.3 5.348 0.211
01:32 1020 30.12 849 25.07 4.8 40.7 81 1.8 35.3 5.234 0.206
01:33 1020 30.12 849 25.07 4.7 40.5 81 1.8 35.3 5.167 0.203
01:34 1020 30.12 849 25.07 4.6 40.4 82 1.8 35.3 5.059 0.199
01:35 1020 30.12 849 25.07 4.6 40.2 83 1.9 35.4 4.991 0.196
01:36 1020 30.12 849 25.07 4.5 40.1 83 1.8 35.3 4.98 0.196
01:37 1020 30.12 849 25.07 4.6 40.2 82 1.8 35.3 4.991 0.196
01:38 1020 30.12 849 25.07 4.6 40.2 82 1.8 35.3 4.98 0.196
01:39 1020 30.12 849 25.07 4.5 40.1 82 1.7 35.1 4.901 0.193
01:40 1020 30.12 849 25.07 4.4 39.9 83 1.8 35.2 4.799 0.189
01:41 1020 30.12 849 25.07 4.4 39.9 83 1.7 35.1 4.799 0.189
01:42 1020 30.12 849 25.07 4.3 39.8 83 1.7 35 4.714 0.186
01:43 1020 30.12 849 25.07 4.2 39.5 83 1.6 34.9 4.556 0.179
01:44 1020 30.12 849 25.07 4 39.2 84 1.6 34.9 4.437 0.175
01:45 1020 30.12 849 25.07 3.9 39 85 1.6 34.8 4.318 0.17
01:46 1020 30.12 849 25.07 3.8 38.9 86 1.6 34.9 4.256 0.168
01:47 1020 30.12 849 25.07 3.7 38.7 87 1.7 35.1 4.205 0.166
01:48 1020 30.12 849 25.07 3.8 38.8 87 1.8 35.3 4.222 0.166
01:49 1020 30.12 849 25.07 3.8 38.9 86 1.7 35.1 4.301 0.169
01:50 1020 30.12 849 25.07 3.9 39 86 1.7 35 4.295 0.169
01:51 1020 30.12 849 25.07 3.8 38.9 85 1.6 34.9 4.199 0.165
01:52 1020 30.12 849 25.07 3.8 38.9 86 1.6 34.9 4.222 0.166
01:53 1020 30.12 849 25.07 3.8 38.9 85 1.5 34.8 4.273 0.168
01:54 1020 30.12 849 25.07 3.9 39.1 84 1.6 34.8 4.341 0.171
01:55 1020 30.12 849 25.07 4.1 39.3 83 1.5 34.7 4.471 0.176
01:56 1020 30.12 849 25.07 4.2 39.6 82 1.5 34.7 4.641 0.183
01:57 1020 30.12 849 25.07 4.5 40.1 81 1.5 34.7 4.929 0.194
01:58 1019 30.09 849 25.07 4.7 40.4 80 1.5 34.7 5.076 0.2
01:59 1019 30.09 849 25.07 4.8 40.6 79 1.5 34.7 5.116 0.201
02:00 1019 30.09 849 25.07 4.7 40.5 80 1.5 34.8 5.076 0.2
02:01 1019 30.09 849 25.07 4.6 40.2 81 1.5 34.8 4.935 0.194
02:02 1019 30.09 849 25.07 4.3 39.8 81 1.4 34.5 4.725 0.186
02:03 1019 30.09 849 25.07 4.2 39.5 83 1.5 34.7 4.618 0.182
02:04 1019 30.09 849 25.07 4.3 39.8 82 1.5 34.8 4.782 0.188
02:05 1019 30.09 849 25.07 4.5 40.1 81 1.6 34.8 4.907 0.193
02:06 1019 30.09 849 25.07 4.5 40.1 81 1.5 34.7 4.85 0.191
02:07 1019 30.09 849 25.07 4.4 39.9 81 1.5 34.7 4.759 0.187
02:08 1019 30.09 849 25.07 4.4 39.9 81 1.4 34.6 4.776 0.188
02:09 1019 30.09 849 25.07 4.4 39.9 81 1.4 34.6 4.765 0.188
02:10 1019 30.09 849 25.07 4.4 39.9 81 1.4 34.6 4.799 0.189
02:11 1019 30.09 849 25.07 4.4 40 80 1.3 34.4 4.89 0.193
02:12 1019 30.09 849 25.07 4.6 40.3 79 1.4 34.4 4.986 0.196
02:13 1019 30.09 849 25.07 4.8 40.6 79 1.4 34.5 5.105 0.201
02:14 1019 30.09 849 25.07 4.9 40.8 78 1.4 34.5 5.308 0.209
02:15 1019 30.09 849 25.07 5 41 78 1.5 34.7 5.359 0.211
02:16 1019 30.09 849 25.07 5 41 78 1.5 34.8 5.433 0.214
02:17 1019 30.09 849 25.07 4.9 40.9 79 1.5 34.8 5.257 0.207
02:18 1019 30.09 849 25.07 4.6 40.3 80 1.5 34.7 5.048 0.199
02:19 1019 30.09 849 25.07 4.6 40.2 81 1.5 34.7 4.969 0.196
02:20 1019 30.09 849 25.07 4.5 40.2 81 1.5 34.7 4.98 0.196
02:21 1019 30.09 849 25.07 4.5 40.1 81 1.5 34.7 4.958 0.195
02:22 1019 30.09 849 25.07 4.5 40.1 81 1.5 34.8 4.912 0.193
02:23 1019 30.09 849 25.07 4.6 40.2 81 1.6 34.8 4.901 0.193
02:24 1019 30.09 849 25.07 4.6 40.3 81 1.5 34.8 4.975 0.196
02:25 1019 30.09 849 25.07 4.6 40.3 80 1.5 34.7 5.003 0.197
02:26 1019 30.09 849 25.07 4.6 40.3 80 1.5 34.8 5.037 0.198
02:27 1019 30.09 849 25.07 4.6 40.3 81 1.5 34.8 5.02 0.198
02:28 1019 30.09 849 25.07 4.6 40.3 80 1.5 34.7 4.986 0.196
02:29 1019 30.09 848 25.04 4.6 40.2 81 1.5 34.7 5.003 0.197
02:30 1019 30.09 848 25.04 4.6 40.2 81 1.6 34.8 4.986 0.196
02:31 1019 30.09 849 25.07 4.5 40.1 81 1.6 34.8 4.918 0.194
02:32 1019 30.09 849 25.07 4.5 40.1 81 1.5 34.7 4.924 0.194
02:33 1019 30.09 848 25.04 4.5 40.1 80 1.5 34.6 4.924 0.194
02:34 1019 30.09 848 25.04 4.6 40.3 80 1.4 34.6 4.975 0.196
02:35 1019 30.09 848 25.04 4.7 40.5 79 1.4 34.6 5.065 0.199
02:36 1019 30.09 848 25.04 4.8 40.6 78 1.4 34.4 5.19 0.204
02:37 1019 30.09 848 25.04 4.9 40.8 78 1.4 34.6 5.263 0.207
02:38 1019 30.09 848 25.04 4.9 40.8 78 1.4 34.6 5.303 0.209
02:39 1019 30.09 848 25.04 4.9 40.8 78 1.4 34.6 5.314 0.209
02:40 1019 30.09 848 25.04 4.9 40.7 78 1.4 34.5 5.269 0.207
02:41 1019 30.09 848 25.04 4.7 40.5 78 1.3 34.3 5.093 0.201
02:42 1019 30.09 848 25.04 4.5 40.1 80 1.4 34.4 4.861 0.191
02:43 1019 30.09 848 25.04 4.4 39.8 81 1.4 34.6 4.788 0.189
02:44 1019 30.09 848 25.04 4.3 39.8 82 1.4 34.6 4.754 0.187
02:45 1019 30.09 848 25.04 4.3 39.8 81 1.4 34.5 4.72 0.186
02:46 1019 30.09 848 25.04 4.4 39.9 81 1.4 34.6 4.788 0.189
02:47 1019 30.09 848 25.04 4.4 40 81 1.4 34.5 4.839 0.191
02:48 1019 30.09 848 25.04 4.5 40 80 1.4 34.5 4.901 0.193
02:49 1019 30.09 848 25.04 4.6 40.2 80 1.4 34.5 5.042 0.199
02:50 1019 30.09 848 25.04 4.7 40.5 79 1.4 34.5 5.122 0.202
02:51 1019 30.09 849 25.07 4.8 40.6 79 1.4 34.6 5.144 0.203
02:52 1019 30.09 848 25.04 4.7 40.5 80 1.5 34.7 5.093 0.201
02:53 1019 30.09 849 25.07 4.6 40.3 80 1.4 34.6 4.997 0.197
02:54 1019 30.09 849 25.07 4.6 40.2 80 1.4 34.6 4.946 0.195
02:55 1019 30.09 849 25.07 4.5 40.1 81 1.4 34.6 4.89 0.193
02:56 1019 30.09 849 25.07 4.5 40 81 1.5 34.6 4.867 0.192
02:57 1019 30.09 849 25.07 4.5 40.1 81 1.5 34.7 4.867 0.192
02:58 1019 30.09 849 25.07 4.5 40.1 80 1.4 34.5 4.924 0.194
02:59 1019 30.09 849 25.07 4.5 40.2 80 1.4 34.5 4.969 0.196
03:00 1019 30.09 849 25.07 4.5 40.1 81 1.5 34.7 4.901 0.193
03:01 1019 30.09 849 25.07 4.4 40 81 1.4 34.6 4.901 0.193
03:02 1019 30.09 849 25.07 4.5 40 81 1.5 34.6 4.856 0.191
03:03 1019 30.09 849 25.07 4.4 40 81 1.4 34.5 4.85 0.191
03:04 1019 30.09 849 25.07 4.4 39.9 81 1.4 34.5 4.822 0.19
03:05 1019 30.09 849 25.07 4.4 39.9 81 1.4 34.5 4.765 0.188
03:06 1019 30.09 849 25.07 4.3 39.7 81 1.3 34.4 4.737 0.186
03:07 1019 30.09 849 25.07 4.3 39.7 81 1.3 34.4 4.692 0.185
03:08 1019 30.09 849 25.07 4.3 39.8 81 1.3 34.4 4.726 0.186
03:09 1019 30.09 849 25.07 4.4 39.8 81 1.4 34.4 4.776 0.188
03:10 1019 30.09 849 25.07 4.4 39.9 81 1.3 34.4 4.754 0.187
03:11 1019 30.09 849 25.07 4.4 39.8 81 1.3 34.4 4.714 0.186
03:12 1019 30.09 849 25.07 4.3 39.8 81 1.3 34.3 4.742 0.187
03:13 1019 30.09 849 25.07 4.3 39.7 81 1.2 34.2 4.669 0.184
03:14 1019 30.09 849 25.07 4.2 39.5 81 1.1 34.1 4.578 0.18
03:15 1019 30.09 849 25.07 4.1 39.3 82 1.2 34.1 4.465 0.176
03:16 1019 30.09 849 25.07 4 39.2 82 1.2 34.2 4.426 0.174
03:17 1019 30.09 849 25.07 4 39.1 82 1.2 34.2 4.397 0.173
03:18 1019 30.09 849 25.07 4 39.1 82 1.2 34.2 4.352 0.171
03:19 1019 30.09 849 25.07 4 39.2 82 1.2 34.1 4.386 0.173
03:20 1019 30.09 849 25.07 4 39.3 82 1.2 34.1 4.46 0.176
03:21 1019 30.09 849 25.07 4.1 39.4 81 1.2 34.1 4.527 0.178
03:22 1019 30.09 849 25.07 4.2 39.6 81 1.2 34.2 4.624 0.182
03:23 1019 30.09 849 25.07 4.2 39.6 81 1.2 34.1 4.652 0.183
03:24 1019 30.09 849 25.07 4.2 39.6 81 1.2 34.1 4.629 0.182
03:25 1019 30.09 849 25.07 4.3 39.7 80 1.2 34.1 4.652 0.183
03:26 1019 30.09 849 25.07 4.3 39.7 80 1.1 34 4.686 0.184
03:27 1019 30.09 849 25.07 4.4 39.9 79 1.2 34.1 4.799 0.189
03:28 1019 30.09 849 25.07 4.6 40.2 78 1 33.8 4.946 0.195
03:29 1019 30.09 849 25.07 4.7 40.5 77 0.9 33.7 5.076 0.2
03:30 1019 30.09 849 25.07 4.7 40.5 76 0.9 33.6 5.037 0.198
03:31 1019 30.09 849 25.07 4.7 40.4 76 0.8 33.5 5.042 0.199
03:32 1019 30.09 848 25.04 4.7 40.5 76 0.8 33.5 5.082 0.2
03:33 1019 30.09 848 25.04 4.7 40.4 76 0.8 33.5 5.008 0.197
03:34 1019 30.09 848 25.04 4.6 40.2 76 0.7 33.3 4.89 0.193
03:35 1019 30.09 848 25.04 4.5 40 77 0.7 33.3 4.85 0.191
03:36 1019 30.09 848 25.04 4.4 39.9 77 0.7 33.3 4.788 0.189
03:37 1019 30.09 848 25.04 4.3 39.7 78 0.9 33.5 4.68 0.184
03:38 1019 30.09 848 25.04 4.2 39.5 79 0.9 33.5 4.544 0.179
03:39 1019 30.09 848 25.04 4.1 39.3 79 0.8 33.5 4.482 0.176
03:40 1019 30.09 848 25.04 4.1 39.4 79 0.9 33.6 4.482 0.176
03:41 1019 30.09 848 25.04 4 39.3 80 0.8 33.5 4.443 0.175
03:42 1019 30.09 848 25.04 4 39.2 80 0.9 33.6 4.365 0.172
03:43 1019 30.09 848 25.04 3.9 39 80 0.8 33.5 4.28 0.169
03:44 1019 30.09 848 25.04 3.8 38.8 81 0.8 33.4 4.178 0.164
03:45 1019 30.09 848 25.04 3.6 38.5 82 0.9 33.6 4.099 0.161
03:46 1019 30.09 848 25.04 3.5 38.2 83 0.8 33.5 3.957 0.156
03:47 1019 30.09 848 25.04 3.3 38 84 0.8 33.4 3.815 0.15
03:48 1019 30.09 848 25.04 3.2 37.7 84 0.7 33.3 3.668 0.144
03:49 1019 30.09 848 25.04 3.1 37.6 85 0.8 33.5 3.521 0.139
03:50 1019 30.09 848 25.04 3.1 37.6 85 0.8 33.5 3.55 0.14
03:51 1019 30.09 848 25.04 3.1 37.5 85 0.8 33.5 3.488 0.137
03:52 1019 30.09 848 25.04 3.1 37.6 85 0.8 33.5 3.534 0.139
03:53 1019 30.09 848 25.04 3.1 37.6 85 0.8 33.4 3.545 0.14
03:54 1019 30.09 848 25.04 3.1 37.6 85 0.8 33.5 3.516 0.138
03:55 1019 30.09 848 25.04 3.1 37.7 85 0.8 33.5 3.499 0.138
03:56 1019 30.09 848 25.04 3.1 37.5 85 0.8 33.4 3.478 0.137
03:57 1019 30.09 848 25.04 3 37.5 85 0.7 33.3 3.444 0.136
03:58 1019 30.09 848 25.04 3.2 37.7 84 0.8 33.4 3.608 0.142
03:59 1019 30.09 848 25.04 3.5 38.3 82 0.8 33.4 3.903 0.154
04:00 1019 30.09 848 25.04 3.6 38.5 81 0.8 33.4 3.982 0.157
04:01 1019 30.09 848 25.04 3.6 38.4 82 0.7 33.3 3.909 0.154
04:02 1019 30.09 848 25.04 3.4 38.2 82 0.7 33.3 3.836 0.151
04:03 1019 30.09 848 25.04 3.3 38 83 0.7 33.2 3.723 0.147
04:04 1019 30.09 848 25.04 3.4 38.1 83 0.8 33.4 3.802 0.15
04:05 1019 30.09 848 25.04 3.5 38.2 83 0.8 33.5 3.825 0.151
04:06 1019 30.09 848 25.04 3.5 38.3 83 0.9 33.6 3.882 0.153
04:07 1019 30.09 848 25.04 3.4 38.2 84 0.9 33.6 3.82 0.15
04:08 1019 30.09 848 25.04 3.3 37.9 84 0.9 33.5 3.701 0.146
04:09 1019 30.09 848 25.04 3.2 37.7 85 0.9 33.6 3.571 0.141
04:10 1019 30.09 848 25.04 3.1 37.6 85 0.9 33.6 3.486 0.137
04:11 1019 30.09 848 25.04 3 37.4 86 0.9 33.6 3.39 0.133
04:12 1019 30.09 848 25.04 2.9 37.2 86 0.8 33.5 3.311 0.13
04:13 1019 30.09 848 25.04 2.8 37 86 0.7 33.3 3.203 0.126
04:14 1019 30.09 848 25.04 2.6 36.7 87 0.7 33.2 3.028 0.119
04:15 1019 30.09 848 25.04 2.4 36.4 88 0.6 33.1 2.875 0.113
04:16 1019 30.09 848 25.04 2.4 36.2 88 0.6 33.1 2.751 0.108
04:17 1019 30.09 848 25.04 2.3 36.1 89 0.6 33.1 2.689 0.106
04:18 1019 30.09 848 25.04 2.2 36 89 0.6 33.2 2.632 0.104
04:19 1019 30.09 848 25.04 2.3 36.1 89 0.7 33.2 2.649 0.104
04:20 1019 30.09 848 25.04 2.3 36.1 89 0.7 33.2 2.666 0.105
04:21 1019 30.09 848 25.04 2.3 36.1 89 0.6 33.1 2.695 0.106
04:22 1019 30.09 848 25.04 2.3 36.1 89 0.6 33.1 2.655 0.105
04:23 1019 30.09 848 25.04 2.3 36.2 89 0.7 33.2 2.65 0.104
04:24 1019 30.09 848 25.04 2.3 36.2 89 0.7 33.2 2.7 0.106
04:25 1019 30.09 848 25.04 2.4 36.3 89 0.7 33.3 2.775 0.109
04:26 1019 30.09 848 25.04 2.4 36.4 89 0.7 33.3 2.781 0.109
04:27 1019 30.09 848 25.04 2.4 36.4 89 0.7 33.3 2.81 0.111
04:28 1019 30.09 848 25.04 2.5 36.4 89 0.8 33.4 2.804 0.11
04:29 1019 30.09 848 25.04 2.4 36.4 89 0.8 33.4 2.787 0.11
04:30 1019 30.09 848 25.04 2.4 36.4 89 0.8 33.4 2.815 0.111
04:31 1019 30.09 848 25.04 2.5 36.4 89 0.8 33.4 2.861 0.113
04:32 1019 30.09 848 25.04 2.4 36.4 89 0.7 33.3 2.862 0.113
04:33 1019 30.09 848 25.04 2.5 36.5 89 0.8 33.4 2.85 0.112
04:34 1019 30.09 848 25.04 2.5 36.4 88 0.7 33.3 2.84 0.112
04:35 1019 30.09 848 25.04 2.4 36.3 89 0.8 33.4 2.812 0.111
04:36 1019 30.09 848 25.04 2.5 36.5 89 0.9 33.6 2.897 0.114
04:37 1019 30.09 848 25.04 2.6 36.7 89 0.9 33.6 2.965 0.117
04:38 1019 30.09 848 25.04 2.6 36.7 88 0.8 33.5 2.999 0.118
04:39 1019 30.09 848 25.04 2.6 36.8 87 0.8 33.4 3.022 0.119
04:40 1019 30.09 848 25.04 2.6 36.7 87 0.7 33.3 2.977 0.117
04:41 1019 30.09 848 25.04 2.6 36.7 87 0.7 33.3 2.972 0.117
04:42 1019 30.09 848 25.04 2.6 36.6 87 0.7 33.2 2.915 0.115
04:43 1019 30.09 848 25.04 2.5 36.5 88 0.7 33.2 2.876 0.113
04:44 1019 30.09 848 25.04 2.5 36.5 88 0.8 33.4 2.882 0.113
04:45 1019 30.09 848 25.04 2.5 36.5 88 0.8 33.4 2.882 0.113
04:46 1019 30.09 848 25.04 2.5 36.4 88 0.7 33.3 2.865 0.113
04:47 1019 30.09 848 25.04 2.4 36.4 88 0.7 33.3 2.775 0.109
04:48 1019 30.09 848 25.04 2.3 36.2 89 0.7 33.3 2.701 0.106
04:49 1019 30.09 848 25.04 2.3 36.2 90 0.8 33.4 2.667 0.105
04:50 1019 30.09 848 25.04 2.5 36.4 90 0.9 33.7 2.848 0.112
04:51 1019 30.09 848 25.04 2.6 36.7 89 0.9 33.6 2.962 0.117
04:52 1019 30.09 848 25.04 2.7 36.8 88 0.9 33.6 3.013 0.119
04:53 1019 30.09 848 25.04 2.7 36.9 88 0.9 33.6 3.132 0.123
04:54 1019 30.09 848 25.04 2.9 37.1 87 0.9 33.7 3.194 0.126
04:55 1019 30.09 848 25.04 3 37.3 87 1 33.8 3.336 0.131
04:56 1019 30.09 848 25.04 3 37.4 86 0.9 33.6 3.438 0.135
04:57 1019 30.09 848 25.04 3.2 37.7 85 1 33.7 3.528 0.139
04:58 1019 30.09 848 25.04 3.3 37.9 85 1 33.7 3.608 0.142
04:59 1019 30.09 848 25.04 3.3 37.9 84 0.9 33.6 3.647 0.144
05:00 1019 30.09 848 25.04 3.2 37.8 84 0.9 33.5 3.619 0.142
05:01 1019 30.09 848 25.04 3.3 38 84 0.9 33.6 3.585 0.141
05:02 1019 30.09 848 25.04 3.3 37.9 84 0.8 33.5 3.614 0.142
05:03 1019 30.09 848 25.04 3.2 37.8 84 0.8 33.4 3.642 0.143
05:04 1019 30.09 848 25.04 3.3 37.9 84 0.8 33.4 3.614 0.142
05:05 1019 30.09 848 25.04 3.2 37.8 84 0.8 33.4 3.58 0.141
05:06 1019 30.09 848 25.04 3.2 37.8 84 0.8 33.4 3.534 0.139
05:07 1019 30.09 848 25.04 3.1 37.6 84 0.7 33.3 3.518 0.139
05:08 1019 30.09 848 25.04 3.2 37.7 84 0.8 33.4 3.523 0.139
05:09 1019 30.09 848 25.04 3.2 37.7 84 0.7 33.3 3.501 0.138
05:10 1019 30.09 848 25.04 3.1 37.6 84 0.7 33.3 3.433 0.135
05:11 1019 30.09 848 25.04 3.1 37.6 84 0.7 33.2 3.444 0.136
05:12 1019 30.09 848 25.04 3.1 37.5 84 0.6 33.2 3.438 0.135
05:13 1019 30.09 848 25.04 3 37.5 84 0.6 33.1 3.421 0.135
05:14 1019 30.09 848 25.04 3.1 37.5 84 0.6 33.1 3.41 0.134
05:15 1019 30.09 848 25.04 3.1 37.5 84 0.7 33.2 3.416 0.134
05:16 1019 30.09 848 25.04 3 37.5 84 0.7 33.2 3.416 0.134
05:17 1019 30.09 848 25.04 3.1 37.5 84 0.6 33.1 3.421 0.135
05:18 1019 30.09 848 25.04 3.1 37.6 84 0.6 33.1 3.467 0.136
05:19 1019 30.09 848 25.04 3.1 37.6 84 0.6 33.2 3.45 0.136
05:20 1019 30.09 848 25.04 3.1 37.6 84 0.7 33.2 3.416 0.134
05:21 1019 30.09 848 25.04 3.1 37.5 84 0.6 33.2 3.45 0.136
05:22 1019 30.09 848 25.04 3.1 37.6 84 0.6 33.1 3.484 0.137
05:23 1019 30.09 848 25.04 3.1 37.6 84 0.6 33.1 3.484 0.137
05:24 1019 30.09 848 25.04 3 37.5 84 0.6 33.1 3.376 0.133
05:25 1019 30.09 848 25.04 3 37.4 85 0.6 33.1 3.342 0.132
05:26 1019 30.09 848 25.04 3 37.4 84 0.6 33 3.41 0.134
05:27 1019 30.09 848 25.04 3.1 37.7 83 0.6 33.1 3.54 0.139
05:28 1019 30.09 848 25.04 3.2 37.8 83 0.6 33.2 3.563 0.14
05:29 1019 30.09 848 25.04 3.2 37.7 83 0.6 33.1 3.574 0.141
05:30 1019 30.09 848 25.04 3.2 37.7 83 0.6 33.1 3.557 0.14
05:31 1019 30.09 848 25.04 3.1 37.7 83 0.6 33.1 3.535 0.139
05:32 1019 30.09 848 25.04 3.2 37.8 83 0.7 33.2 3.557 0.14
05:33 1019 30.09 848 25.04 3.2 37.8 83 0.6 33.2 3.625 0.143
05:34 1018 30.06 848 25.04 3.3 37.9 83 0.6 33.1 3.62 0.143
05:35 1018 30.06 848 25.04 3.3 37.9 83 0.6 33.1 3.654 0.144
05:36 1018 30.06 848 25.04 3.3 37.9 83 0.6 33.1 3.682 0.145
05:37 1018 30.06 848 25.04 3.3 38 83 0.7 33.2 3.693 0.145
05:38 1019 30.09 848 25.04 3.3 37.9 83 0.6 33.1 3.659 0.144
05:39 1018 30.06 848 25.04 3.3 38 83 0.6 33.1 3.71 0.146
05:40 1018 30.06 848 25.04 3.4 38.1 82 0.6 33.1 3.727 0.147
05:41 1018 30.06 848 25.04 3.5 38.3 82 0.7 33.2 3.88 0.153
05:42 1018 30.06 848 25.04 3.6 38.5 81 0.7 33.3 3.965 0.156
05:43 1018 30.06 848 25.04 3.6 38.6 81 0.7 33.3 3.976 0.157
05:44 1018 30.06 848 25.04 3.7 38.6 81 0.8 33.4 4.01 0.158
05:45 1018 30.06 848 25.04 3.6 38.6 81 0.8 33.4 4.033 0.159
05:46 1018 30.06 848 25.04 3.6 38.5 81 0.7 33.3 3.999 0.157
05:47 1018 30.06 848 25.04 3.7 38.6 81 0.7 33.3 4.022 0.158
05:48 1018 30.06 848 25.04 3.7 38.7 81 0.7 33.3 4.016 0.158
05:49 1018 30.06 848 25.04 3.8 38.8 80 0.7 33.2 4.169 0.164
05:50 1018 30.06 848 25.04 3.9 39 80 0.7 33.3 4.22 0.166
05:51 1018 30.06 848 25.04 3.9 39 79 0.6 33.1 4.276 0.168
05:52 1018 30.06 848 25.04 4 39.2 79 0.6 33.1 4.367 0.172
05:53 1018 30.06 848 25.04 4.1 39.4 79 0.7 33.3 4.497 0.177
05:54 1018 30.06 848 25.04 4.1 39.4 79 0.7 33.3 4.475 0.176
05:55 1019 30.09 848 25.04 4.1 39.4 78 0.7 33.3 4.548 0.179
05:56 1019 30.09 848 25.04 4.2 39.5 78 0.7 33.3 4.577 0.18
05:57 1019 30.09 848 25.04 4.2 39.6 78 0.7 33.3 4.673 0.184
05:58 1019 30.09 848 25.04 4.3 39.7 78 0.7 33.3 4.712 0.186
05:59 1019 30.09 848 25.04 4.3 39.7 78 0.7 33.3 4.792 0.189
06:00 1019 30.09 848 25.04 4.3 39.8 78 0.8 33.4 4.826 0.19
06:01 1019 30.09 848 25.04 4.4 40 78 0.8 33.5 4.899 0.193
06:02 1019 30.09 848 25.04 4.5 40.1 77 0.8 33.4 5.012 0.197
06:03 1019 30.09 848 25.04 4.6 40.3 76 0.7 33.2 5.103 0.201
06:04 1019 30.09 848 25.04 4.7 40.5 75 0.7 33.2 5.216 0.205
06:05 1019 30.09 848 25.04 4.8 40.6 75 0.8 33.4 5.228 0.206
06:06 1019 30.09 848 25.04 4.7 40.5 75 0.7 33.2 5.211 0.205
06:07 1019 30.09 848 25.04 4.7 40.4 75 0.6 33.1 5.165 0.203
06:08 1019 30.09 848 25.04 4.6 40.3 75 0.6 33.1 5.086 0.2
06:09 1019 30.09 848 25.04 4.6 40.2 76 0.7 33.2 5.046 0.199
06:10 1019 30.09 848 25.04 4.5 40 77 0.8 33.4 4.944 0.195
06:11 1019 30.09 848 25.04 4.4 39.8 77 0.8 33.4 4.86 0.191
06:12 1019 30.09 848 25.04 4.3 39.7 78 0.8 33.5 4.775 0.188
06:13 1019 30.09 848 25.04 4.3 39.7 78 0.8 33.4 4.769 0.188
06:14 1019 30.09 848 25.04 4.4 39.9 78 0.8 33.5 4.809 0.189
06:15 1019 30.09 848 25.04 4.4 40 78 0.9 33.5 4.848 0.191
06:16 1019 30.09 848 25.04 4.4 40 78 1 33.8 4.911 0.193
06:17 1019 30.09 848 25.04 4.5 40.1 77 0.8 33.4 4.995 0.197
06:18 1019 30.09 848 25.04 4.7 40.5 76 0.8 33.4 5.188 0.204
06:19 1019 30.09 848 25.04 4.9 40.9 74 0.7 33.3 5.414 0.213
06:20 1019 30.09 848 25.04 5.2 41.3 73 0.8 33.5 5.624 0.221
06:21 1019 30.09 848 25.04 5.3 41.6 73 1 33.7 5.692 0.224
06:22 1019 30.09 848 25.04 5.3 41.5 74 1.1 34 5.697 0.224
06:23 1019 30.09 848 25.04 5.2 41.4 74 1 33.8 5.68 0.224
06:24 1019 30.09 848 25.04 5.3 41.5 75 1.1 34 5.68 0.224
06:25 1019 30.09 848 25.04 5.3 41.5 75 1.2 34.2 5.686 0.224
06:26 1019 30.09 848 25.04 5.3 41.5 76 1.3 34.4 5.703 0.225
06:27 1019 30.09 848 25.04 5.3 41.6 75 1.3 34.3 5.743 0.226
06:28 1019 30.09 848 25.04 5.4 41.7 75 1.4 34.5 5.816 0.229
06:29 1019 30.09 848 25.04 5.5 41.8 75 1.5 34.6 5.867 0.231
06:30 1019 30.09 848 25.04 5.5 41.9 76 1.7 35 5.935 0.234
06:31 1019 30.09 848 25.04 5.6 42.1 76 1.8 35.2 5.969 0.235
06:32 1019 30.09 848 25.04 5.6 42.1 77 1.9 35.4 6.065 0.239
06:33 1019 30.09 848 25.04 5.7 42.3 76 1.8 35.3 6.111 0.241
06:34 1019 30.09 848 25.04 5.8 42.4 76 1.9 35.4 6.184 0.243
06:35 1019 30.09 848 25.04 5.9 42.6 74 1.7 35.1 6.315 0.249
06:36 1019 30.09 848 25.04 6 42.9 74 1.7 35 6.456 0.254
06:37 1019 30.09 848 25.04 6.2 43.2 75 2.2 35.9 6.575 0.259
06:38 1019 30.09 848 25.04 6.3 43.3 74 2 35.7 6.699 0.264
06:39 1019 30.09 848 25.04 6.5 43.6 74 2.1 35.8 6.824 0.269
06:40 1019 30.09 848 25.04 6.6 43.8 73 2.1 35.8 6.976 0.275
06:41 1019 30.09 848 25.04 6.8 44.2 68 1.3 34.4 7.13 0.281
06:42 1019 30.09 848 25.04 6.9 44.5 71 2 35.7 7.35 0.289
06:43 1019 30.09 848 25.04 7.1 44.7 71 2.2 36 7.45 0.293
06:44 1019 30.09 848 25.04 7.2 44.9 72 2.4 36.3 7.6 0.299
06:45 1019 30.09 848 25.04 7.3 45.1 72 2.5 36.5 7.69 0.303
06:46 1019 30.09 848 25.04 7.3 45.2 71 2.5 36.5 7.7 0.303
06:47 1019 30.09 848 25.04 7.3 45.2 72 2.7 36.9 7.74 0.305
06:48 1019 30.09 848 25.04 7.3 45.2 72 2.7 36.9 7.77 0.306
06:49 1019 30.09 848 25.04 7.4 45.3 72 2.7 36.9 7.84 0.309
06:50 1019 30.09 848 25.04 7.5 45.5 72 2.7 36.9 7.97 0.314
06:51 1019 30.09 848 25.04 7.6 45.6 71 2.7 36.8 8.04 0.317
06:52 1019 30.09 848 25.04 7.7 45.8 71 2.8 37 8.1 0.319
06:53 1019 30.09 848 25.04 7.8 46 70 2.6 36.7 8.16 0.321
06:54 1019 30.09 848 25.04 7.8 46.1 70 2.8 37 8.22 0.324
06:55 1019 30.09 848 25.04 7.9 46.2 69 2.6 36.7 8.27 0.326
06:56 1019 30.09 848 25.04 7.9 46.3 68 2.4 36.4 8.33 0.328
06:57 1019 30.09 848 25.04 7.9 46.3 68 2.4 36.3 8.36 0.329
06:58 1019 30.09 848 25.04 7.9 46.3 71 3.1 37.5 8.42 0.331
06:59 1019 30.09 848 25.04 8 46.5 72 3.3 37.9 8.63 0.34
07:00 1019 30.09 848 25.04 8.1 46.6 70 3.1 37.5 8.76 0.345
07:01 1019 30.09 848 25.04 8.1 46.5 69 2.8 37.1 8.8 0.346
07:02 1019 30.09 848 25.04 8.1 46.6 72 3.4 38.1 8.85 0.348
07:03 1019 30.09 848 25.04 8.1 46.5 74 3.7 38.6 8.97 0.353
07:04 1019 30.09 848 25.04 8.1 46.5 73 3.5 38.3 9.02 0.355
07:05 1019 30.09 848 25.04 8.1 46.5 71 3.1 37.6 9.1 0.358
07:06 1019 30.09 848 25.04 8.1 46.5 70 3 37.4 9.04 0.356
07:07 1019 30.09 848 25.04 8.1 46.6 74 3.7 38.7 9.08 0.357
07:08 1019 30.09 848 25.04 8.2 46.7 74 3.9 39 9.14 0.36
07:09 1019 30.09 848 25.04 8.1 46.6 74 3.7 38.7 9.06 0.357
07:10 1019 30.09 848 25.04 8.1 46.5 74 3.6 38.5 8.96 0.353
07:11 1019 30.09 848 25.04 8.1 46.5 72 3.4 38.1 8.93 0.352
07:12 1019 30.09 848 25.04 8 46.5 73 3.5 38.2 8.93 0.352
07:13 1019 30.09 848 25.04 8 46.4 75 3.9 39 8.94 0.352
07:14 1019 30.09 848 25.04 8.1 46.6 73 3.6 38.5 9.02 0.355
07:15 1019 30.09 848 25.04 8.2 46.7 73 3.6 38.6 9.04 0.356
07:16 1019 30.09 848 25.04 8.2 46.7 71 3.3 37.9 9.02 0.355
07:17 1019 30.09 848 25.04 8.2 46.7 72 3.5 38.2 9.02 0.355
07:18 1019 30.09 848 25.04 8.3 46.9 68 2.6 36.8 9.11 0.359
07:19 1018 30.06 848 25.04 8.3 46.9 66 2.3 36.1 9.08 0.357
07:20 1018 30.06 848 25.04 8.3 46.9 68 2.8 37 9.13 0.359
07:21 1018 30.06 848 25.04 8.4 47.1 67 2.6 36.8 9.19 0.362
07:22 1018 30.06 848 25.04 8.5 47.3 61 1.4 34.5 9.2 0.362
07:23 1018 30.06 848 25.04 8.6 47.4 63 2.1 35.7 9.29 0.366
07:24 1018 30.06 848 25.04 8.7 47.6 59 1.1 33.9 9.37 0.369
07:25 1018 30.06 848 25.04 8.7 47.7 60 1.5 34.6 9.39 0.37
07:26 1018 30.06 848 25.04 8.8 47.8 64 2.5 36.5 9.48 0.373
07:27 1019 30.09 848 25.04 8.8 47.9 60 1.5 34.7 9.5 0.374
07:28 1018 30.06 848 25.04 8.8 47.9 62 2 35.6 9.51 0.374
07:29 1018 30.06 848 25.04 8.8 47.9 61 1.9 35.4 9.51 0.374
07:30 1018 30.06 848 25.04 8.9 47.9 60 1.5 34.7 9.53 0.375
07:31 1018 30.06 848 25.04 8.8 47.9 63 2.2 35.9 9.44 0.372
07:32 1018 30.06 848 25.04 8.8 47.9 60 1.5 34.7 9.39 0.37
07:33 1019 30.09 848 25.04 8.7 47.7 63 2 35.6 9.37 0.369
07:34 1019 30.09 848 25.04 8.8 47.8 61 1.7 35 9.42 0.371
07:35 1019 30.09 848 25.04 8.8 47.8 59 1.3 34.3 9.4 0.37
07:36 1018 30.06 848 25.04 8.8 47.8 62 2 35.5 9.38 0.369
07:37 1018 30.06 848 25.04 8.8 47.8 68 3.2 37.8 9.47 0.373
07:38 1018 30.06 848 25.04 8.8 47.9 62 2 35.7 9.47 0.373
07:39 1018 30.06 848 25.04 8.8 47.9 62 2 35.6 9.44 0.372
07:40 1018 30.06 848 25.04 8.9 48 62 2.1 35.8 9.48 0.373
07:41 1018 30.06 848 25.04 8.9 48 64 2.5 36.5 9.5 0.374
07:42 1018 30.06 848 25.04 8.9 48.1 62 2.2 35.9 9.57 0.377
07:43 1018 30.06 848 25.04 9 48.2 65 2.9 37.2 9.63 0.379
07:44 1018 30.06 848 25.04 9.1 48.3 66 3.1 37.6 9.64 0.38
07:45 1018 30.06 848 25.04 9.1 48.4 62 2.1 35.8 9.69 0.381
07:46 1018 30.06 848 25.04 9.1 48.4 64 2.7 36.9 9.74 0.383
07:47 1018 30.06 848 25.04 9.2 48.5 64 2.8 37.1 9.78 0.385
07:48 1018 30.06 848 25.04 9.3 48.7 62 2.4 36.3 9.9 0.39
07:49 1018 30.06 848 25.04 9.3 48.8 61 2.3 36.1 9.97 0.393
07:50 1018 30.06 848 25.04 9.5 49 59 1.9 35.5 10.1 0.398
07:51 1018 30.06 848 25.04 9.5 49.2 63 2.8 37.1 10.15 0.4
07:52 1018 30.06 848 25.04 9.7 49.4 59 2.1 35.8 10.3 0.406
07:53 1018 30.06 848 25.04 9.7 49.5 60 2.5 36.4 10.37 0.408
07:54 1018 30.06 848 25.04 9.9 49.9 62 3.1 37.6 10.67 0.42
07:55 1018 30.06 848 25.04 10 50 59 2.5 36.5 10.64 0.419
07:56 1018 30.06 848 25.04 10 50 59 2.3 36.2 10.66 0.42
07:57 1018 30.06 848 25.04 10 50.1 61 2.9 37.2 10.72 0.422
07:58 1018 30.06 847 25.01 10.1 50.2 58 2.3 36.1 10.79 0.425
07:59 1018 30.06 847 25.01 10.3 50.6 61 3.1 37.5 11.02 0.434
08:00 1018 30.06 848 25.04 10.3 50.5 57 2.3 36.2 10.96 0.431
08:01 1018 30.06 848 25.04 10.3 50.5 61 3.1 37.6 10.97 0.432
08:02 1018 30.06 848 25.04 10.3 50.6 67 4.4 39.9 10.99 0.433
08:03 1018 30.06 848 25.04 10.3 50.6 58 2.4 36.3 11 0.433
08:04 1018 30.06 848 25.04 10.4 50.6 59 2.7 36.8 10.95 0.431
08:05 1018 30.06 847 25.01 10.3 50.6 60 3 37.3 10.99 0.433
08:06 1018 30.06 848 25.04 10.3 50.6 61 3.1 37.7 10.98 0.432
08:07 1018 30.06 847 25.01 10.3 50.6 57 2.2 35.9 10.97 0.432
08:08 1018 30.06 847 25.01 10.3 50.5 59 2.7 36.8 10.94 0.431
08:09 1018 30.06 847 25.01 10.4 50.6 60 3.1 37.5 10.95 0.431
08:10 1018 30.06 847 25.01 10.4 50.6 56 2.1 35.7 10.88 0.428
08:11 1018 30.06 847 25.01 10.4 50.7 60 3 37.4 10.96 0.431
08:12 1018 30.06 847 25.01 10.4 50.7 58 2.5 36.4 11.04 0.435
08:13 1018 30.06 847 25.01 10.5 50.9 61 3.4 38.2 11.03 0.434
08:14 1018 30.06 847 25.01 10.6 51.1 60 3.1 37.6 11.19 0.441
08:15 1018 30.06 847 25.01 10.7 51.2 59 3.1 37.5 11.34 0.446
08:16 1018 30.06 847 25.01 10.8 51.4 57 2.5 36.6 11.44 0.45
08:17 1018 30.06 847 25.01 10.8 51.5 60 3.5 38.3 11.39 0.448
08:18 1018 30.06 847 25.01 10.8 51.5 60 3.3 38 11.45 0.451
08:19 1018 30.06 847 25.01 10.9 51.6 56 2.5 36.5 11.44 0.45
08:20 1018 30.06 847 25.01 10.9 51.5 58 3 37.3 11.38 0.448
08:21 1018 30.06 847 25.01 10.8 51.5 58 3.1 37.5 11.38 0.448
08:22 1018 30.06 847 25.01 10.9 51.5 54 2.1 35.7 11.37 0.448
08:23 1018 30.06 847 25.01 10.9 51.6 55 2.2 36 11.45 0.451
08:24 1018 30.06 847 25.01 11 51.7 60 3.5 38.4 11.48 0.452
08:25 1018 30.06 847 25.01 11 51.8 65 4.7 40.5 11.54 0.454
08:26 1018 30.06 847 25.01 11.1 51.9 55 2.4 36.2 11.6 0.457
08:27 1018 30.06 847 25.01 11.1 52 57 3 37.4 11.61 0.457
08:28 1018 30.06 847 25.01 11.1 52 60 3.8 38.8 11.73 0.462
08:29 1018 30.06 847 25.01 11.2 52.1 55 2.6 36.8 11.7 0.461
08:30 1018 30.06 847 25.01 11.2 52.1 58 3.2 37.7 11.69 0.46
08:31 1018 30.06 847 25.01 11.2 52.2 61 4.1 39.3 11.8 0.465
08:32 1018 30.06 847 25.01 11.4 52.5 63 4.5 40.2 11.95 0.47
08:33 1018 30.06 847 25.01 11.5 52.7 53 2.4 36.3 12.12 0.477
08:34 1018 30.06 847 25.01 11.5 52.7 59 3.9 39 11.99 0.472
08:35 1018 30.06 847 25.01 11.4 52.5 58 3.5 38.4 11.96 0.471
08:36 1018 30.06 847 25.01 11.5 52.6 56 2.9 37.3 12.04 0.474
08:37 1018 30.06 847 25.01 11.6 52.8 56 3.2 37.7 12.09 0.476
08:38 1018 30.06 847 25.01 11.7 53 60 4.2 39.5 12.2 0.48
08:39 1018 30.06 847 25.01 11.7 53 57 3.6 38.4 12.17 0.479
08:40 1018 30.06 847 25.01 11.6 52.8 55 2.9 37.3 12.06 0.475
08:41 1018 30.06 847 25.01 11.6 52.8 54 2.5 36.6 12.15 0.478
08:42 1018 30.06 847 25.01 11.7 53.1 57 3.6 38.5 12.23 0.481
08:43 1018 30.06 847 25.01 11.8 53.2 53 2.5 36.5 12.32 0.485
08:44 1018 30.06 847 25.01 11.8 53.3 56 3.3 38 12.3 0.484
08:45 1018 30.06 847 25.01 11.9 53.4 57 3.7 38.6 12.36 0.487
08:46 1018 30.06 847 25.01 11.9 53.5 56 3.6 38.4 12.44 0.49
08:47 1018 30.06 847 25.01 12 53.6 53 2.9 37.2 12.56 0.494
08:48 1018 30.06 847 25.01 12 53.6 54 3 37.5 12.59 0.496
08:49 1018 30.06 847 25.01 12.1 53.7 56 3.6 38.5 12.61 0.496
08:50 1018 30.06 847 25.01 12.1 53.8 52 2.6 36.7 12.62 0.497
08:51 1018 30.06 847 25.01 12.2 53.9 53 2.9 37.2 12.72 0.501
08:52 1018 30.06 847 25.01 12.2 54 52 2.8 37.1 12.78 0.503
08:53 1018 30.06 847 25.01 12.3 54.2 49 2 35.7 12.86 0.506
08:54 1018 30.06 847 25.01 12.3 54.1 50 2.2 36 12.87 0.507
08:55 1018 30.06 847 25.01 12.4 54.4 49 2.1 35.9 13 0.512
08:56 1018 30.06 847 25.01 12.7 54.8 51 3 37.3 13.28 0.523
08:57 1018 30.06 847 25.01 12.8 55 48 2.1 35.8 13.46 0.53
08:58 1018 30.06 847 25.01 12.8 55 48 2 35.7 13.46 0.53
08:59 1018 30.06 847 25.01 12.8 55.1 47 1.8 35.2 13.52 0.532
09:00 1018 30.06 847 25.01 13.1 55.5 47 2 35.7 13.75 0.541
09:01 1018 30.06 847 25.01 13.1 55.5 50 3.1 37.5 13.78 0.543
09:02 1018 30.06 847 25.01 13.1 55.5 54 4 39.2 13.73 0.541
09:03 1018 30.06 847 25.01 13.2 55.7 51 3.5 38.2 13.86 0.546
09:04 1018 30.06 847 25.01 13.2 55.8 48 2.6 36.7 13.78 0.543
09:05 1018 30.06 847 25.01 13.2 55.7 47 2.1 35.8 13.66 0.538
09:06 1018 30.06 847 25.01 13.1 55.6 46 1.9 35.4 13.65 0.537
09:07 1018 30.06 847 25.01 13.2 55.8 45 1.7 35 13.81 0.544
09:08 1018 30.06 847 25.01 13.5 56.2 45 1.9 35.4 14.15 0.557
09:09 1018 30.06 847 25.01 13.8 56.8 50 3.6 38.4 14.45 0.569
09:10 1018 30.06 847 25.01 13.9 57.1 44 1.9 35.4 14.43 0.568
09:11 1018 30.06 847 25.01 13.8 56.8 45 2.2 35.9 14.27 0.562
09:12 1018 30.06 847 25.01 13.7 56.7 46 2.5 36.4 14.29 0.563
09:13 1018 30.06 847 25.01 13.7 56.7 48 3 37.3 14.29 0.563
09:14 1018 30.06 847 25.01 13.5 56.3 53 4.1 39.4 14.13 0.556
09:15 1018 30.06 847 25.01 13.3 56 56 4.8 40.6 14.01 0.552
09:16 1018 30.06 847 25.01 13.3 56 46 2 35.6 13.9 0.547
09:17 1018 30.06 847 25.01 13.4 56.1 52 3.9 39.1 13.95 0.549
09:18 1018 30.06 847 25.01 13.4 56.1 52 3.8 38.8 14.05 0.553
09:19 1018 30.06 847 25.01 13.5 56.2 44 1.4 34.5 14.14 0.557
09:20 1018 30.06 847 25.01 13.5 56.3 46 2.3 36.2 14.18 0.558
09:21 1018 30.06 847 25.01 13.5 56.2 49 3 37.5 14.27 0.562
09:22 1018 30.06 847 25.01 13.6 56.4 45 2 35.6 14.32 0.564
09:23 1018 30.06 847 25.01 13.5 56.3 44 1.6 34.9 14.3 0.563
09:24 1018 30.06 847 25.01 13.5 56.3 45 2 35.5 14.28 0.562
09:25 1018 30.06 847 25.01 13.5 56.2 46 2.2 36 14.19 0.559
09:26 1018 30.06 847 25.01 13.5 56.3 49 3.1 37.6 14.22 0.56
09:27 1018 30.06 847 25.01 13.7 56.6 46 2.5 36.4 14.4 0.567
09:28 1018 30.06 847 25.01 13.8 56.8 46 2.6 36.6 14.56 0.573
09:29 1017 30.03 847 25.01 13.7 56.7 45 2 35.5 14.58 0.574
09:30 1017 30.03 847 25.01 13.7 56.7 54 4.5 40.2 14.52 0.572
09:31 1017 30.03 847 25.01 13.7 56.7 50 3.7 38.6 14.56 0.573
09:32 1017 30.03 847 25.01 13.9 57 54 5 40.9 14.69 0.578
09:33 1017 30.03 847 25.01 14 57.2 43 1.7 35.1 14.78 0.582
09:34 1017 30.03 847 25.01 14 57.3 49 3.7 38.7 14.75 0.581
09:35 1017 30.03 847 25.01 14.2 57.5 41 1.4 34.5 14.84 0.584
09:36 1017 30.03 847 25.01 14.1 57.4 43 1.8 35.3 14.66 0.577
09:37 1017 30.03 847 25.01 14.2 57.6 47 3.1 37.5 14.78 0.582
09:38 1017 30.03 847 25.01 14.3 57.8 42 1.5 34.8 14.81 0.583
09:39 1017 30.03 847 25.01 14.3 57.7 48 3.3 38 14.63 0.576
09:40 1017 30.03 847 25.01 14.3 57.7 46 2.8 37.1 14.71 0.579
09:41 1017 30.03 846 24.98 14.5 58 44 2.6 36.6 14.89 0.586
09:42 1017 30.03 846 24.98 14.6 58.2 46 3.3 37.9 15.15 0.596
09:43 1017 30.03 846 24.98 14.6 58.3 42 1.8 35.2 15.39 0.606
09:44 1017 30.03 846 24.98 14.7 58.5 50 4.4 39.9 15.49 0.61
09:45 1017 30.03 846 24.98 14.7 58.4 42 2.2 35.9 15.28 0.602
09:46 1017 30.03 846 24.98 14.5 58.1 41 1.3 34.4 15.04 0.592
09:47 1017 30.03 846 24.98 14.4 58 43 2 35.6 14.93 0.588
09:48 1017 30.03 846 24.98 14.3 57.8 44 2.2 36 14.76 0.581
09:49 1017 30.03 846 24.98 14.3 57.7 47 3.2 37.8 14.74 0.58
09:50 1017 30.03 846 24.98 14.4 57.9 41 1.5 34.7 14.93 0.588
09:51 1017 30.03 846 24.98 14.4 57.9 43 1.9 35.5 14.96 0.589
09:52 1017 30.03 846 24.98 14.5 58.1 44 2.6 36.6 15.03 0.592
09:53 1017 30.03 846 24.98 14.3 57.8 49 3.8 38.8 14.85 0.585
09:54 1017 30.03 846 24.98 14.2 57.6 47 3.3 37.9 14.71 0.579
09:55 1017 30.03 846 24.98 14.1 57.3 45 2.4 36.4 14.55 0.573
09:56 1017 30.03 846 24.98 14 57.2 52 4.3 39.7 14.54 0.572
09:57 1017 30.03 846 24.98 14.1 57.4 43 2 35.5 14.64 0.576
09:58 1017 30.03 846 24.98 14.2 57.5 49 3.7 38.7 14.71 0.579
09:59 1017 30.03 846 24.98 14.4 57.9 51 4.4 40 14.86 0.585
10:00 1017 30.03 846 24.98 14.5 58.1 49 4 39.1 14.92 0.587
10:01 1017 30.03 846 24.98 14.5 58.2 52 4.9 40.9 15.05 0.593
10:02 1017 30.03 846 24.98 14.6 58.3 53 5.2 41.4 15.05 0.593
10:03 1017 30.03 846 24.98 14.7 58.4 42 1.9 35.4 15.14 0.596
10:04 1017 30.03 846 24.98 14.6 58.3 46 3.1 37.6 14.95 0.589
10:05 1017 30.03 846 24.98 14.7 58.4 47 3.6 38.5 15.11 0.595
10:06 1017 30.03 846 24.98 14.8 58.7 49 4.2 39.6 15.32 0.603
10:07 1017 30.03 846 24.98 15 58.9 41 1.9 35.5 15.38 0.606
10:08 1017 30.03 846 24.98 15 59 39 1.2 34.2 15.34 0.604
10:09 1017 30.03 846 24.98 15 59.1 45 3.4 38.1 15.49 0.61
10:10 1017 30.03 846 24.98 15 59.1 50 4.7 40.4 15.55 0.612
10:11 1017 30.03 846 24.98 15.1 59.1 38 0.8 33.5 15.62 0.615
10:12 1017 30.03 846 24.98 15.1 59.1 46 3.8 38.8 15.37 0.605
10:13 1017 30.03 846 24.98 15.1 59.1 40 1.8 35.2 15.37 0.605
10:14 1017 30.03 846 24.98 15.1 59.1 42 2.3 36.1 15.37 0.605
10:15 1017 30.03 846 24.98 15 59 45 3.3 37.9 15.3 0.602
10:16 1017 30.03 846 24.98 15.1 59.1 38 1.1 33.9 15.43 0.607
10:17 1017 30.03 846 24.98 15.1 59.2 37 0.5 33 15.47 0.609
10:18 1016 30 846 24.98 15.2 59.4 39 1.3 34.3 15.62 0.615
10:19 1016 30 846 24.98 15.4 59.6 45 3.5 38.3 15.77 0.621
10:20 1016 30 846 24.98 15.4 59.7 42 2.5 36.5 15.88 0.625
10:21 1016 30 846 24.98 15.3 59.6 52 5.6 42.1 15.85 0.624
10:22 1016 30 846 24.98 15.4 59.8 42 2.7 36.8 16.01 0.63
10:23 1016 30 846 24.98 15.6 60 40 2.3 36.1 16.05 0.632
10:24 1016 30 845 24.95 15.6 60 43 3.1 37.6 16.03 0.631
10:25 1016 30 845 24.95 15.4 59.8 46 3.8 38.9 15.89 0.626
10:26 1016 30 845 24.95 15.5 59.8 47 4.2 39.5 16.02 0.631
10:27 1016 30 845 24.95 15.6 60.1 43 3 37.4 16.14 0.635
10:28 1016 30 845 24.95 15.7 60.3 45 3.9 39 16.25 0.64
10:29 1016 30 845 24.95 15.8 60.4 37 1.3 34.3 16.22 0.639
10:30 1016 30 845 24.95 15.7 60.3 39 2 35.5 16.04 0.631
10:31 1016 30 845 24.95 15.7 60.2 43 3.2 37.8 16 0.63
10:32 1016 30 845 24.95 15.7 60.2 40 2.2 36 16.04 0.631
10:33 1016 30 845 24.95 15.7 60.2 44 3.6 38.4 16.07 0.633
10:34 1016 30 845 24.95 15.7 60.2 49 5 41 16.03 0.631
10:35 1016 30 845 24.95 15.8 60.5 47 4.7 40.5 16.32 0.643
10:36 1016 30 845 24.95 16.1 61 49 5.6 42.1 16.65 0.656
10:37 1016 30 845 24.95 16.4 61.6 40 2.8 37 16.89 0.665
10:38 1016 30 845 24.95 16.5 61.6 39 2.7 36.9 16.88 0.665
10:39 1016 30 845 24.95 16.1 61 37 1.4 34.5 16.49 0.649
10:40 1016 30 845 24.95 15.9 60.6 41 2.8 37 16.26 0.64
10:41 1016 30 845 24.95 15.7 60.3 36 0.9 33.7 16.05 0.632
10:42 1016 30 845 24.95 15.6 60 37 1.1 34 16 0.63
10:43 1016 30 845 24.95 15.6 60.1 38 1.6 34.9 16.04 0.631
10:44 1016 30 845 24.95 15.9 60.7 46 4.5 40.2 16.46 0.648
10:45 1016 30 845 24.95 16.3 61.3 39 2.5 36.5 16.72 0.658
10:46 1016 30 845 24.95 16.5 61.7 40 2.9 37.3 16.78 0.661
10:47 1016 30 845 24.95 16.5 61.7 35 0.9 33.6 16.79 0.661
10:48 1016 30 845 24.95 16.3 61.4 38 2.2 36 16.73 0.659
10:49 1016 30 845 24.95 16.3 61.3 44 4.2 39.6 16.75 0.659
10:50 1016 30 845 24.95 16.3 61.4 37 1.8 35.2 16.9 0.665
10:51 1016 30 845 24.95 16.4 61.4 43 3.8 38.9 16.9 0.665
10:52 1016 30 845 24.95 16.5 61.7 38 2.3 36.2 16.94 0.667
10:53 1016 30 845 24.95 16.3 61.4 44 4.2 39.6 16.8 0.661
10:54 1016 30 845 24.95 16.1 61.1 43 3.7 38.6 16.64 0.655
10:55 1016 30 845 24.95 16.1 60.9 43 3.6 38.4 16.6 0.654
10:56 1016 30 845 24.95 16 60.9 39 2.3 36.1 16.63 0.655
10:57 1016 30 845 24.95 16 60.7 36 1.1 34 16.52 0.65
10:58 1016 30 845 24.95 15.8 60.5 39 2.1 35.7 16.42 0.646
10:59 1016 30 845 24.95 15.8 60.4 48 4.8 40.7 16.41 0.646
11:00 1016 30 845 24.95 15.8 60.5 37 1.4 34.6 16.45 0.648
11:01 1016 30 845 24.95 15.9 60.6 36 1 33.8 16.53 0.651
11:02 1016 30 845 24.95 16 60.8 42 3.3 37.9 16.64 0.655
11:03 1016 30 845 24.95 16.2 61.2 39 2.4 36.3 16.94 0.667
11:04 1016 30 845 24.95 16.5 61.6 39 2.7 36.8 17.14 0.675
11:05 1016 30 845 24.95 16.5 61.7 39 2.6 36.7 17.2 0.677
11:06 1016 30 845 24.95 16.4 61.6 39 2.5 36.5 17.15 0.675
11:07 1016 30 845 24.95 16.5 61.6 36 1.4 34.5 17.17 0.676
11:08 1016 30 845 24.95 16.5 61.7 36 1.6 34.9 17.18 0.676
11:09 1016 30 845 24.95 16.6 61.8 42 3.6 38.6 17.28 0.68
11:10 1016 30 845 24.95 16.7 62 37 2.2 35.9 17.3 0.681
11:11 1016 30 845 24.95 16.6 61.9 36 1.7 35.1 17.29 0.681
11:12 1016 30 845 24.95 16.5 61.7 45 4.6 40.3 17.11 0.674
11:13 1016 30 845 24.95 16.4 61.6 41 3.2 37.8 17 0.669
11:14 1015 29.97 845 24.95 16.5 61.6 40 3 37.5 17.02 0.67
11:15 1015 29.97 845 24.95 16.5 61.7 37 2 35.6 17.08 0.672
11:16 1016 30 845 24.95 16.4 61.6 43 3.8 38.9 16.99 0.669
11:17 1015 29.97 845 24.95 16.5 61.6 44 4.4 39.9 17.01 0.67
11:18 1015 29.97 845 24.95 16.5 61.7 42 3.6 38.4 17.06 0.672
11:19 1015 29.97 845 24.95 16.5 61.8 35 1.1 34 17.12 0.674
11:20 1015 29.97 845 24.95 16.6 62 48 5.6 42.1 17.19 0.677
11:21 1015 29.97 845 24.95 16.7 62 41 3.6 38.5 17.25 0.679
11:22 1015 29.97 845 24.95 16.6 61.9 41 3.5 38.2 17.15 0.675
11:23 1015 29.97 845 24.95 16.5 61.7 36 1.3 34.4 17.03 0.67
11:24 1015 29.97 845 24.95 16.4 61.6 48 5.4 41.7 16.97 0.668
11:25 1015 29.97 845 24.95 16.5 61.7 36 1.3 34.4 17.09 0.673
11:26 1015 29.97 845 24.95 16.5 61.7 45 4.5 40.2 17.03 0.67
11:27 1015 29.97 845 24.95 16.6 61.9 47 5.3 41.6 17.12 0.674
11:28 1015 29.97 844 24.92 16.9 62.3 43 4.3 39.8 17.44 0.687
11:29 1015 29.97 845 24.95 17.2 62.9 36 2.2 36 17.79 0.7
11:30 1015 29.97 845 24.95 17.2 62.9 35 1.5 34.8 17.77 0.7
11:31 1015 29.97 845 24.95 17.1 62.9 32 0.5 32.9 17.63 0.694
11:32 1015 29.97 844 24.92 17 62.5 38 2.5 36.5 17.49 0.689
11:33 1015 29.97 844 24.92 16.9 62.4 43 4.3 39.7 17.4 0.685
11:34 1015 29.97 844 24.92 16.9 62.4 36 1.8 35.2 17.47 0.688
11:35 1015 29.97 844 24.92 17 62.5 40 3.3 38 17.56 0.691
11:36 1015 29.97 844 24.92 17.1 62.8 46 5.5 41.9 17.63 0.694
11:37 1015 29.97 844 24.92 17.3 63.1 35 1.8 35.3 17.88 0.704
11:38 1015 29.97 844 24.92 17.4 63.3 36 2.1 35.8 17.94 0.706
11:39 1015 29.97 844 24.92 17.5 63.5 37 2.6 36.6 18.03 0.71
11:40 1015 29.97 844 24.92 17.6 63.6 41 4.3 39.7 18.11 0.713
11:41 1015 29.97 844 24.92 17.6 63.8 34 1.5 34.8 18.15 0.715
11:42 1015 29.97 844 24.92 17.6 63.6 33 1.4 34.5 18.07 0.711
11:43 1015 29.97 844 24.92 17.4 63.4 37 2.8 37 18 0.709
11:44 1015 29.97 844 24.92 17.4 63.3 37 2.7 36.8 17.96 0.707
11:45 1015 29.97 844 24.92 17.4 63.4 36 2.3 36.1 18.03 0.71
11:46 1015 29.97 844 24.92 17.5 63.5 37 2.8 37 18.05 0.711
11:47 1015 29.97 844 24.92 17.5 63.5 38 3.3 38 18.12 0.713
11:48 1015 29.97 844 24.92 17.6 63.7 37 2.8 37 18.2 0.717
11:49 1015 29.97 844 24.92 17.5 63.5 44 5.4 41.7 18.04 0.71
11:50 1015 29.97 844 24.92 17.5 63.4 32 0.8 33.4 18.01 0.709
11:51 1015 29.97 844 24.92 17.4 63.2 32 0.4 32.8 17.83 0.702
11:52 1015 29.97 844 24.92 17.3 63.1 33 1 33.9 17.76 0.699
11:53 1015 29.97 844 24.92 17.2 63 41 4 39.2 17.76 0.699
11:54 1015 29.97 844 24.92 17.3 63.2 40 3.6 38.5 17.85 0.703
11:55 1015 29.97 844 24.92 17.6 63.6 37 3 37.4 18.09 0.712
11:56 1015 29.97 844 24.92 17.7 63.9 36 2.6 36.8 18.25 0.719
11:57 1015 29.97 844 24.92 17.6 63.8 34 1.9 35.3 18.12 0.713
11:58 1015 29.97 844 24.92 17.5 63.5 39 3.5 38.3 18 0.709
11:59 1015 29.97 844 24.92 17.4 63.3 33 1 33.9 17.92 0.706
12:00 1015 29.97 844 24.92 17.4 63.2 34 1.4 34.6 17.9 0.705
12:01 1015 29.97 844 24.92 17.4 63.3 38 3.1 37.6 17.92 0.706
12:02 1015 29.97 844 24.92 17.3 63.2 40 3.8 38.9 17.88 0.704
12:03 1015 29.97 844 24.92 17.3 63.2 45 5.3 41.5 17.93 0.706
12:04 1015 29.97 844 24.92 17.4 63.4 35 1.9 35.5 18.04 0.71
12:05 1015 29.97 844 24.92 17.6 63.7 37 2.7 36.9 18.18 0.716
12:06 1015 29.97 844 24.92 17.7 63.8 32 1.1 33.9 18.17 0.715
12:07 1015 29.97 844 24.92 17.6 63.7 39 3.7 38.7 18.21 0.717
12:08 1015 29.97 844 24.92 17.7 63.9 45 5.8 42.5 18.32 0.721
12:09 1015 29.97 844 24.92 17.8 64.1 44 5.5 41.8 18.5 0.728
12:10 1015 29.97 844 24.92 17.9 64.3 44 5.6 42.2 18.55 0.73
12:11 1015 29.97 844 24.92 18 64.3 44 5.6 42.1 18.49 0.728
12:12 1015 29.97 844 24.92 17.9 64.2 36 2.8 37 18.38 0.724
12:13 1015 29.97 844 24.92 17.7 63.9 42 4.6 40.3 18.25 0.719
12:14 1015 29.97 844 24.92 17.6 63.8 42 4.8 40.7 18.15 0.715
12:15 1015 29.97 844 24.92 17.6 63.7 45 5.7 42.2 18.1 0.713
12:16 1015 29.97 844 24.92 17.6 63.7 35 2.2 36 18.17 0.715
12:17 1015 29.97 844 24.92 17.7 63.8 45 5.8 42.5 18.19 0.716
12:18 1015 29.97 844 24.92 17.7 63.9 44 5.3 41.5 18.25 0.719
12:19 1014 29.94 844 24.92 17.8 64 37 3 37.3 18.37 0.723
12:20 1014 29.94 844 24.92 17.8 64 43 5 41.1 18.29 0.72
12:21 1014 29.94 844 24.92 17.8 64.1 42 4.9 40.7 18.29 0.72
12:22 1014 29.94 844 24.92 17.8 64 35 2.2 35.9 18.22 0.717
12:23 1014 29.94 844 24.92 17.7 63.9 46 6 42.8 18.19 0.716
12:24 1014 29.94 844 24.92 17.7 63.9 29 -0.6 30.9 18.24 0.718
12:25 1014 29.94 844 24.92 17.8 64 39 3.6 38.5 18.26 0.719
12:26 1014 29.94 844 24.92 17.8 64.1 36 2.6 36.7 18.33 0.722
12:27 1014 29.94 844 24.92 17.7 63.9 36 2.5 36.5 18.25 0.719
12:28 1014 29.94 844 24.92 17.7 63.9 35 2.2 35.9 18.21 0.717
12:29 1014 29.94 844 24.92 17.7 63.9 41 4.4 39.9 18.26 0.719
12:30 1014 29.94 844 24.92 17.8 64 38 3.4 38.1 18.29 0.72
12:31 1014 29.94 843 24.89 17.8 64.1 33 1.4 34.4 18.41 0.725
12:32 1014 29.94 843 24.89 17.9 64.2 35 2.4 36.4 18.46 0.727
12:33 1014 29.94 843 24.89 18 64.4 41 4.6 40.4 18.56 0.731
12:34 1014 29.94 843 24.89 18.1 64.6 46 6.3 43.4 18.67 0.735
12:35 1014 29.94 843 24.89 18.1 64.6 41 4.9 40.7 18.67 0.735
12:36 1014 29.94 843 24.89 18 64.4 44 5.7 42.2 18.52 0.729
12:37 1014 29.94 843 24.89 18 64.4 45 6.1 43 18.59 0.732
12:38 1014 29.94 843 24.89 18.1 64.6 35 2.4 36.4 18.65 0.734
12:39 1014 29.94 843 24.89 18.2 64.7 32 1.5 34.8 18.7 0.736
12:40 1014 29.94 843 24.89 18.2 64.8 49 7.5 45.5 18.7 0.736
12:41 1014 29.94 843 24.89 18.3 64.9 31 1.1 34.1 18.77 0.739
12:42 1014 29.94 843 24.89 18.3 64.9 42 5.4 41.7 18.75 0.738
12:43 1014 29.94 843 24.89 18.3 64.9 42 5.2 41.4 18.8 0.74
12:44 1014 29.94 843 24.89 18.3 64.9 43 5.5 41.9 18.82 0.741
12:45 1014 29.94 843 24.89 18.3 65 33 1.7 35.1 18.85 0.742
12:46 1014 29.94 843 24.89 18.3 64.9 41 4.8 40.7 18.8 0.74
12:47 1014 29.94 843 24.89 18.4 65.1 32 1.7 35 18.9 0.744
12:48 1014 29.94 843 24.89 18.4 65.1 38 4 39.3 18.94 0.746
12:49 1014 29.94 843 24.89 18.4 65 43 5.8 42.5 18.9 0.744
12:50 1014 29.94 843 24.89 18.2 64.7 32 1.5 34.7 18.71 0.737
12:51 1014 29.94 843 24.89 18.1 64.5 35 2.5 36.6 18.54 0.73
12:52 1014 29.94 843 24.89 18.1 64.5 38 3.6 38.6 18.51 0.729
12:53 1014 29.94 843 24.89 18.1 64.7 41 5 40.9 18.62 0.733
12:54 1014 29.94 843 24.89 18.2 64.8 46 6.5 43.8 18.74 0.738
12:55 1014 29.94 843 24.89 18.3 65 40 4.6 40.2 18.79 0.74
12:56 1014 29.94 843 24.89 18.5 65.3 42 5.7 42.2 19 0.748
12:57 1014 29.94 843 24.89 18.7 65.6 45 6.6 43.8 19.22 0.757
12:58 1014 29.94 843 24.89 18.7 65.7 49 7.8 46 19.23 0.757
12:59 1014 29.94 843 24.89 18.6 65.4 35 2.9 37.2 19.02 0.749
13:00 1014 29.94 843 24.89 18.4 65.1 33 2.1 35.7 18.85 0.742
13:01 1014 29.94 843 24.89 18.3 64.9 34 2.1 35.8 18.75 0.738
13:02 1014 29.94 843 24.89 18.2 64.8 31 0.8 33.5 18.68 0.735
13:03 1014 29.94 843 24.89 18.2 64.8 35 2.6 36.8 18.7 0.736
13:04 1014 29.94 843 24.89 18.2 64.8 35 2.8 37 18.66 0.735
13:05 1013 29.91 843 24.89 18.2 64.8 31 1 33.8 18.7 0.736
13:06 1013 29.91 843 24.89 18.2 64.8 36 3.2 37.8 18.74 0.738
13:07 1013 29.91 843 24.89 18.3 65 33 2.1 35.8 18.85 0.742
13:08 1013 29.91 843 24.89 18.5 65.2 36 3.1 37.6 19 0.748
13:09 1013 29.91 843 24.89 18.5 65.3 31 1.1 34.1 19.03 0.749
13:10 1013 29.91 843 24.89 18.4 65 35 2.7 36.8 18.86 0.743
13:11 1013 29.91 843 24.89 18.4 65.1 35 2.9 37.3 18.98 0.747
13:12 1013 29.91 843 24.89 18.4 65.2 31 1 33.7 18.92 0.745
13:13 1013 29.91 843 24.89 18.4 65.1 36 3.4 38.1 18.86 0.743
13:14 1013 29.91 843 24.89 18.4 65.1 33 2.1 35.7 18.96 0.746
13:15 1013 29.91 842 24.86 18.5 65.3 34 2.3 36.2 19.15 0.754
13:16 1013 29.91 842 24.86 18.7 65.7 38 4.4 40 19.48 0.767
13:17 1013 29.91 842 24.86 19 66.1 31 1.8 35.2 19.71 0.776
13:18 1013 29.91 842 24.86 19 66.3 40 5.2 41.4 19.61 0.772
13:19 1013 29.91 842 24.86 19 66.2 36 3.6 38.5 19.63 0.773
13:20 1013 29.91 842 24.86 19 66.2 34 2.7 36.9 19.62 0.772
13:21 1013 29.91 842 24.86 18.9 66.1 50 8.4 47.1 19.52 0.769
13:22 1013 29.91 842 24.86 19.1 66.3 41 5.8 42.4 19.62 0.772
13:23 1013 29.91 842 24.86 19.1 66.4 39 5.1 41.2 19.64 0.773
13:24 1013 29.91 842 24.86 19.1 66.5 42 5.9 42.7 19.62 0.772
13:25 1013 29.91 842 24.86 19.2 66.5 33 2.5 36.5 19.62 0.772
13:26 1013 29.91 842 24.86 19 66.2 38 4.5 40.1 19.43 0.765
13:27 1013 29.91 842 24.86 18.8 65.8 39 4.5 40.1 19.19 0.756
13:28 1013 29.91 842 24.86 18.6 65.5 35 3 37.4 19.02 0.749
13:29 1013 29.91 842 24.86 18.5 65.3 39 4.3 39.7 18.92 0.745
13:30 1013 29.91 842 24.86 18.5 65.3 40 4.9 40.8 18.95 0.746
13:31 1013 29.91 842 24.86 18.4 65.1 42 5.2 41.4 18.82 0.741
13:32 1013 29.91 842 24.86 18.2 64.7 39 4.1 39.3 18.61 0.733
13:33 1013 29.91 842 24.86 18 64.3 38 3.7 38.6 18.34 0.722
13:34 1013 29.91 842 24.86 17.7 63.9 35 2.3 36.1 18.1 0.713
13:35 1013 29.91 842 24.86 17.6 63.7 43 5.1 41.1 17.99 0.708
13:36 1013 29.91 842 24.86 17.6 63.6 42 4.5 40.1 18.01 0.709
13:37 1013 29.91 842 24.86 17.6 63.7 42 4.7 40.4 18.09 0.712
13:38 1013 29.91 842 24.86 17.6 63.7 37 2.9 37.3 18.06 0.711
13:39 1013 29.91 842 24.86 17.6 63.6 43 4.8 40.7 18.04 0.71
13:40 1013 29.91 842 24.86 17.5 63.5 47 6.2 43.1 17.99 0.708
13:41 1013 29.91 842 24.86 17.5 63.6 42 4.6 40.4 17.94 0.706
13:42 1013 29.91 842 24.86 17.4 63.4 43 5 40.9 17.87 0.704
13:43 1013 29.91 842 24.86 17.4 63.2 42 4.4 40 17.79 0.7
13:44 1013 29.91 842 24.86 17.4 63.2 44 5.1 41.2 17.79 0.7
13:45 1013 29.91 842 24.86 17.4 63.3 45 5.5 41.8 17.82 0.702
13:46 1013 29.91 842 24.86 17.4 63.4 49 6.8 44.2 17.88 0.704
13:47 1013 29.91 842 24.86 17.6 63.7 42 4.8 40.6 18.07 0.711
13:48 1013 29.91 842 24.86 17.8 64.1 38 3.4 38.2 18.22 0.717
13:49 1013 29.91 842 24.86 17.9 64.2 45 5.8 42.5 18.34 0.722
13:50 1013 29.91 842 24.86 18 64.5 34 2.1 35.8 18.48 0.728
13:51 1013 29.91 842 24.86 18.1 64.5 37 3.5 38.2 18.45 0.726
13:52 1013 29.91 842 24.86 18.1 64.5 41 4.9 40.8 18.52 0.729
13:53 1013 29.91 842 24.86 18.1 64.6 39 4.2 39.6 18.57 0.731
13:54 1013 29.91 842 24.86 18.2 64.7 42 5.4 41.6 18.62 0.733
13:55 1013 29.91 842 24.86 18.2 64.7 46 6.5 43.7 18.67 0.735
13:56 1013 29.91 842 24.86 18.2 64.8 44 5.8 42.5 18.73 0.737
13:57 1013 29.91 842 24.86 18.3 64.9 37 3.4 38.2 18.75 0.738
13:58 1013 29.91 842 24.86 18.4 65.1 38 3.9 39.1 18.78 0.739
13:59 1012 29.88 842 24.86 18.3 65 34 2.4 36.3 18.77 0.739
14:00 1012 29.88 842 24.86 18.3 64.9 36 3 37.4 18.74 0.738
14:01 1012 29.88 842 24.86 18.3 64.9 37 3.3 38 18.73 0.737
14:02 1012 29.88 842 24.86 18.2 64.7 33 1.7 35 18.62 0.733
14:03 1012 29.88 842 24.86 18.1 64.5 37 3.4 38.1 18.5 0.728
14:04 1012 29.88 842 24.86 18.1 64.5 37 3.3 37.9 18.47 0.727
14:05 1012 29.88 842 24.86 18 64.4 44 5.8 42.4 18.48 0.728
14:06 1012 29.88 842 24.86 18 64.4 42 5.1 41.1 18.5 0.728
14:07 1012 29.88 842 24.86 18 64.5 45 6.1 42.9 18.49 0.728
14:08 1012 29.88 842 24.86 18 64.4 40 4.2 39.6 18.52 0.729
14:09 1012 29.88 842 24.86 17.9 64.3 42 5.1 41.1 18.34 0.722
14:10 1012 29.88 841 24.83 17.8 64.1 44 5.7 42.2 18.32 0.721
14:11 1012 29.88 841 24.83 17.8 64 42 4.9 40.8 18.3 0.72
14:12 1012 29.88 841 24.83 17.7 63.9 47 6.4 43.4 18.2 0.717
14:13 1012 29.88 841 24.83 17.7 63.8 44 5.3 41.5 18.14 0.714
14:14 1012 29.88 841 24.83 17.6 63.7 42 4.7 40.4 18.08 0.712
14:15 1012 29.88 841 24.83 17.4 63.4 45 5.4 41.7 17.92 0.706
14:16 1012 29.88 841 24.83 17.3 63.2 41 4 39.2 17.79 0.7
14:17 1012 29.88 841 24.83 17.3 63.1 43 4.7 40.5 17.69 0.696
14:18 1012 29.88 841 24.83 17.2 62.9 42 4.2 39.6 17.59 0.693
14:19 1012 29.88 841 24.83 17.1 62.8 38 2.7 36.8 17.57 0.692
14:20 1012 29.88 841 24.83 17.1 62.7 40 3.6 38.5 17.49 0.689
14:21 1012 29.88 841 24.83 17 62.7 40 3.3 38 17.44 0.687
14:22 1012 29.88 841 24.83 17 62.5 39 2.9 37.1 17.39 0.685
14:23 1012 29.88 841 24.83 17 62.6 42 4.1 39.4 17.36 0.683
14:24 1012 29.88 841 24.83 17 62.5 43 4.3 39.8 17.39 0.685
14:25 1012 29.88 841 24.83 16.9 62.4 39 3 37.4 17.35 0.683
14:26 1012 29.88 841 24.83 16.9 62.5 43 4.2 39.6 17.4 0.685
14:27 1012 29.88 841 24.83 17 62.5 41 3.7 38.6 17.43 0.686
14:28 1012 29.88 841 24.83 17.1 62.7 39 3.1 37.6 17.52 0.69
14:29 1012 29.88 841 24.83 17.2 62.9 43 4.6 40.3 17.61 0.693
14:30 1012 29.88 841 24.83 17.2 63 41 3.9 39 17.65 0.695
14:31 1012 29.88 841 24.83 17.2 62.9 39 3.2 37.8 17.63 0.694
14:32 1012 29.88 841 24.83 17.2 62.9 43 4.5 40 17.62 0.694
14:33 1012 29.88 842 24.86 17.1 62.8 39 3.1 37.5 17.58 0.692
14:34 1012 29.88 841 24.83 17.1 62.7 43 4.4 39.9 17.55 0.691
14:35 1012 29.88 841 24.83 17.1 62.8 42 4.2 39.6 17.57 0.692
14:36 1012 29.88 841 24.83 17.1 62.8 39 3.3 37.9 17.57 0.692
14:37 1012 29.88 841 24.83 17.1 62.8 39 3.2 37.8 17.58 0.692
14:38 1012 29.88 842 24.86 17.2 62.9 48 6.1 43 17.66 0.695
14:39 1012 29.88 842 24.86 17.2 62.9 42 4.2 39.5 17.62 0.694
14:40 1012 29.88 841 24.83 17.1 62.9 39 3.2 37.8 17.61 0.693
14:41 1012 29.88 841 24.83 17.2 62.9 40 3.7 38.6 17.63 0.694
14:42 1012 29.88 841 24.83 17.1 62.9 38 2.8 37.1 17.57 0.692
14:43 1012 29.88 841 24.83 17.1 62.8 39 3.2 37.8 17.6 0.693
14:44 1012 29.88 841 24.83 17.1 62.8 45 5.2 41.3 17.61 0.693
14:45 1012 29.88 841 24.83 17.1 62.9 37 2.5 36.5 17.58 0.692
14:46 1012 29.88 841 24.83 17.1 62.8 36 2 35.5 17.61 0.693
14:47 1012 29.88 841 24.83 17.1 62.9 38 2.7 36.9 17.57 0.692
14:48 1012 29.88 841 24.83 17.2 62.9 36 2.2 36 17.63 0.694
14:49 1012 29.88 841 24.83 17.2 63 42 4.5 40 17.67 0.696
14:50 1012 29.88 841 24.83 17.3 63.1 41 4.2 39.5 17.74 0.698
14:51 1012 29.88 841 24.83 17.3 63.1 35 1.9 35.3 17.75 0.699
14:52 1012 29.88 841 24.83 17.2 63 40 3.7 38.6 17.67 0.696
14:53 1012 29.88 841 24.83 17.3 63.1 42 4.3 39.8 17.73 0.698
14:54 1012 29.88 841 24.83 17.3 63.1 43 4.7 40.5 17.77 0.7
14:55 1012 29.88 841 24.83 17.4 63.4 38 2.9 37.3 17.9 0.705
14:56 1012 29.88 841 24.83 17.5 63.6 39 3.6 38.4 17.99 0.708
14:57 1012 29.88 841 24.83 17.6 63.7 42 4.7 40.4 18.09 0.712
14:58 1012 29.88 841 24.83 17.7 63.9 41 4.6 40.3 18.23 0.718
14:59 1012 29.88 841 24.83 17.8 64 38 3.5 38.2 18.25 0.719
15:00 1012 29.88 841 24.83 17.8 64 39 3.7 38.6 18.27 0.719
15:01 1012 29.88 841 24.83 17.7 63.9 41 4.5 40.2 18.15 0.715
15:02 1012 29.88 841 24.83 17.6 63.6 43 4.8 40.7 18 0.709
15:03 1012 29.88 841 24.83 17.4 63.4 40 3.7 38.7 17.88 0.704
15:04 1012 29.88 841 24.83 17.3 63.2 42 4.3 39.8 17.77 0.7
15:05 1012 29.88 841 24.83 17.3 63.1 38 2.9 37.3 17.74 0.698
15:06 1012 29.88 841 24.83 17.2 62.9 44 5.1 41.2 17.69 0.696
15:07 1012 29.88 841 24.83 17.2 63 41 3.9 39 17.7 0.697
15:08 1012 29.88 841 24.83 17.2 63 46 5.6 42.1 17.66 0.695
15:09 1012 29.88 841 24.83 17.3 63.1 46 5.6 42.1 17.76 0.699
15:10 1012 29.88 841 24.83 17.4 63.2 37 2.7 36.9 17.84 0.702
15:11 1012 29.88 841 24.83 17.4 63.3 47 6 42.8 17.86 0.703
15:12 1012 29.88 841 24.83 17.4 63.4 41 4.2 39.5 17.91 0.705
15:13 1012 29.88 841 24.83 17.5 63.4 43 4.8 40.7 17.9 0.705
15:14 1012 29.88 841 24.83 17.4 63.4 43 4.9 40.9 17.91 0.705
15:15 1012 29.88 841 24.83 17.5 63.4 43 4.7 40.5 17.89 0.704
15:16 1012 29.88 841 24.83 17.4 63.3 46 5.9 42.6 17.79 0.7
15:17 1012 29.88 841 24.83 17.3 63.2 40 3.9 39 17.75 0.699
15:18 1012 29.88 841 24.83 17.2 63 36 2.2 36 17.66 0.695
15:19 1012 29.88 841 24.83 17.1 62.9 44 5 40.9 17.58 0.692
15:20 1012 29.88 841 24.83 17.1 62.8 40 3.7 38.6 17.56 0.691
15:21 1012 29.88 841 24.83 17.1 62.8 40 3.5 38.4 17.53 0.69
15:22 1012 29.88 841 24.83 17.1 62.9 42 4.1 39.5 17.59 0.693
15:23 1012 29.88 841 24.83 17.2 63 38 3.1 37.5 17.7 0.697
15:24 1012 29.88 841 24.83 17.3 63.2 33 1.2 34.1 17.8 0.701
15:25 1012 29.88 841 24.83 17.4 63.4 36 2.1 35.9 17.84 0.702
15:26 1012 29.88 841 24.83 17.4 63.4 42 4.7 40.4 17.88 0.704
15:27 1012 29.88 841 24.83 17.5 63.4 42 4.4 39.9 17.9 0.705
15:28 1012 29.88 841 24.83 17.4 63.4 39 3.3 38 17.86 0.703
15:29 1012 29.88 841 24.83 17.4 63.3 33 1.1 33.9 17.85 0.703
15:30 1012 29.88 841 24.83 17.4 63.3 41 4 39.3 17.86 0.703
15:31 1012 29.88 841 24.83 17.4 63.3 41 4.1 39.4 17.88 0.704
15:32 1012 29.88 841 24.83 17.3 63.2 43 4.7 40.5 17.84 0.702
15:33 1012 29.88 841 24.83 17.3 63.1 45 5.2 41.4 17.77 0.7
15:34 1012 29.88 841 24.83 17.2 63 41 3.8 38.8 17.65 0.695
15:35 1012 29.88 841 24.83 17.1 62.8 43 4.7 40.4 17.61 0.693
15:36 1012 29.88 841 24.83 17.1 62.7 42 4.3 39.7 17.56 0.691
15:37 1012 29.88 841 24.83 17.1 62.8 41 3.9 39 17.55 0.691
15:38 1012 29.88 841 24.83 17.2 62.9 33 0.9 33.6 17.63 0.694
15:39 1012 29.88 841 24.83 17.3 63.1 41 4 39.2 17.74 0.698
15:40 1012 29.88 841 24.83 17.5 63.4 45 5.7 42.2 17.97 0.707
15:41 1012 29.88 841 24.83 17.6 63.7 39 3.7 38.7 18.08 0.712
15:42 1012 29.88 841 24.83 17.7 63.8 46 6.2 43.1 18.14 0.714
15:43 1012 29.88 841 24.83 17.7 63.9 39 3.8 38.8 18.24 0.718
15:44 1012 29.88 841 24.83 17.7 63.9 36 2.7 36.9 18.2 0.717
15:45 1012 29.88 841 24.83 17.7 63.8 42 4.7 40.4 18.19 0.716
15:46 1012 29.88 841 24.83 17.7 63.8 39 3.5 38.4 18.15 0.715
15:47 1012 29.88 841 24.83 17.7 63.8 41 4.5 40.2 18.18 0.716
15:48 1012 29.88 841 24.83 17.7 63.9 39 3.6 38.5 18.25 0.719
15:49 1012 29.88 841 24.83 17.8 64 37 2.8 37.1 18.25 0.719
15:50 1012 29.88 841 24.83 17.8 64 48 6.6 43.8 18.21 0.717
15:51 1012 29.88 841 24.83 17.8 64 36 2.4 36.4 18.27 0.719
15:52 1012 29.88 841 24.83 17.8 64 40 4 39.2 18.25 0.719
15:53 1012 29.88 841 24.83 17.8 64 41 4.5 40.1 18.29 0.72
15:54 1012 29.88 841 24.83 17.8 64 45 5.8 42.5 18.28 0.72
15:55 1012 29.88 841 24.83 17.8 64.1 44 5.5 41.9 18.31 0.721
15:56 1012 29.88 841 24.83 17.9 64.2 37 3.2 37.7 18.34 0.722
15:57 1012 29.88 841 24.83 18 64.3 40 4.1 39.4 18.43 0.726
15:58 1012 29.88 841 24.83 18 64.4 33 1.8 35.2 18.52 0.729
15:59 1012 29.88 841 24.83 18.1 64.5 44 5.8 42.5 18.52 0.729
16:00 1012 29.88 841 24.83 18 64.3 41 4.6 40.3 18.47 0.727
16:01 1012 29.88 841 24.83 17.9 64.2 42 4.8 40.7 18.31 0.721
16:02 1012 29.88 841 24.83 17.8 64.1 42 4.9 40.9 18.22 0.717
16:03 1012 29.88 841 24.83 17.8 64 44 5.6 42.1 18.21 0.717
16:04 1012 29.88 841 24.83 17.8 64 43 5.1 41.2 18.19 0.716
16:05 1012 29.88 841 24.83 17.8 64 42 4.8 40.7 18.15 0.715
16:06 1012 29.88 841 24.83 17.7 63.9 44 5.5 41.9 18.11 0.713
16:07 1012 29.88 841 24.83 17.6 63.7 46 6 42.7 18.06 0.711
16:08 1012 29.88 841 24.83 17.5 63.5 49 6.7 44.1 17.91 0.705
16:09 1012 29.88 841 24.83 17.3 63.2 46 5.6 42.1 17.76 0.699
16:10 1012 29.88 841 24.83 17.2 62.9 50 6.8 44.2 17.56 0.691
16:11 1012 29.88 841 24.83 17 62.6 55 7.9 46.2 17.4 0.685
16:12 1012 29.88 841 24.83 16.9 62.3 51 6.9 44.4 17.22 0.678
16:13 1012 29.88 841 24.83 16.7 62.1 51 6.8 44.2 17.09 0.673
16:14 1012 29.88 841 24.83 16.7 62 49 5.9 42.7 17.05 0.671
16:15 1012 29.88 841 24.83 16.6 61.9 50 6.4 43.5 17 0.669
16:16 1012 29.88 841 24.83 16.6 61.9 50 6.2 43.2 16.95 0.667
16:17 1012 29.88 841 24.83 16.4 61.5 53 6.9 44.5 16.78 0.661
16:18 1012 29.88 841 24.83 16.2 61.2 57 7.7 45.9 16.58 0.653
16:19 1012 29.88 841 24.83 16.1 60.9 53 6.5 43.8 16.46 0.648
16:20 1012 29.88 841 24.83 15.9 60.6 56 7.1 44.9 16.25 0.64
16:21 1012 29.88 841 24.83 15.7 60.3 55 6.8 44.2 16.1 0.634
16:22 1012 29.88 842 24.86 15.5 60 58 7.3 45.1 15.91 0.626
16:23 1012 29.88 842 24.86 15.3 59.6 58 7.1 44.8 15.69 0.618
16:24 1012 29.88 842 24.86 15.1 59.2 57 6.7 44.1 15.46 0.609
16:25 1013 29.91 842 24.86 14.9 58.8 56 6.2 43.1 15.26 0.601
16:26 1013 29.91 842 24.86 14.8 58.6 55 5.9 42.6 15.12 0.595
16:27 1012 29.88 842 24.86 14.7 58.5 55 6 42.8 15.11 0.595
16:28 1012 29.88 842 24.86 14.8 58.6 59 7 44.6 15.17 0.597
16:29 1012 29.88 842 24.86 15 59 57 6.7 44.1 15.35 0.604
16:30 1012 29.88 841 24.83 15.2 59.4 53 5.7 42.3 15.61 0.615
16:31 1012 29.88 841 24.83 15.4 59.7 57 7 44.6 15.79 0.622
16:32 1012 29.88 841 24.83 15.5 60 56 6.9 44.4 15.96 0.628
16:33 1012 29.88 841 24.83 15.6 60.1 56 7 44.6 16.04 0.631
16:34 1012 29.88 841 24.83 15.6 60 58 7.5 45.5 15.92 0.627
16:35 1012 29.88 841 24.83 15.4 59.7 55 6.4 43.6 15.69 0.618
16:36 1012 29.88 841 24.83 15.2 59.3 55 6.4 43.5 15.52 0.611
16:37 1012 29.88 841 24.83 15 59 57 6.5 43.8 15.35 0.604
16:38 1012 29.88 841 24.83 14.9 58.7 55 5.9 42.6 15.26 0.601
16:39 1012 29.88 841 24.83 14.8 58.6 55 6 42.9 15.2 0.598
16:40 1012 29.88 841 24.83 14.8 58.7 56 6.1 42.9 15.25 0.6
16:41 1012 29.88 841 24.83 14.8 58.7 55 5.9 42.6 15.24 0.6
16:42 1012 29.88 841 24.83 14.7 58.5 55 6 42.8 15.17 0.597
16:43 1012 29.88 841 24.83 14.7 58.5 55 5.8 42.5 15.13 0.596
16:44 1012 29.88 842 24.86 14.7 58.4 55 5.8 42.5 15.08 0.594
16:45 1012 29.88 842 24.86 14.6 58.3 55 5.6 42.1 15.05 0.593
16:46 1012 29.88 842 24.86 14.6 58.2 57 6.2 43.2 15.04 0.592
16:47 1012 29.88 842 24.86 14.5 58.2 57 6.1 43 14.94 0.588
16:48 1012 29.88 842 24.86 14.5 58.1 55 5.6 42.1 14.89 0.586
16:49 1012 29.88 842 24.86 14.4 58 58 6.3 43.3 14.85 0.585
16:50 1012 29.88 842 24.86 14.4 57.8 56 5.9 42.6 14.77 0.581
16:51 1012 29.88 842 24.86 14.3 57.7 59 6.4 43.5 14.69 0.578
16:52 1012 29.88 842 24.86 14.2 57.5 56 5.7 42.2 14.58 0.574
16:53 1013 29.91 842 24.86 14.1 57.3 55 5.3 41.6 14.46 0.569
16:54 1013 29.91 842 24.86 13.9 57.1 58 5.9 42.6 14.35 0.565
16:55 1013 29.91 842 24.86 13.8 56.9 57 5.6 42.1 14.25 0.561
16:56 1013 29.91 842 24.86 13.7 56.7 55 4.9 40.7 14.15 0.557
16:57 1013 29.91 842 24.86 13.6 56.5 56 5 41 13.99 0.551
16:58 1013 29.91 842 24.86 13.5 56.2 57 5.2 41.3 13.83 0.544
16:59 1013 29.91 842 24.86 13.3 55.9 56 4.7 40.5 13.69 0.539
17:00 1013 29.91 842 24.86 13.2 55.8 59 5.5 41.8 13.63 0.537
17:01 1013 29.91 842 24.86 13.1 55.7 59 5.4 41.8 13.54 0.533
17:02 1013 29.91 842 24.86 13 55.5 59 5.2 41.4 13.45 0.53
17:03 1013 29.91 842 24.86 13 55.5 59 5.3 41.6 13.44 0.529
17:04 1013 29.91 842 24.86 13 55.4 60 5.6 42 13.4 0.528
17:05 1013 29.91 842 24.86 12.9 55.3 61 5.6 42.2 13.36 0.526
17:06 1013 29.91 842 24.86 12.9 55.3 60 5.4 41.6 13.35 0.526
17:07 1013 29.91 842 24.86 12.8 55.1 60 5.3 41.6 13.29 0.523
17:08 1013 29.91 842 24.86 12.8 55 61 5.5 41.9 13.22 0.52
17:09 1013 29.91 842 24.86 12.7 54.8 60 5.2 41.4 13.1 0.516
17:10 1013 29.91 842 24.86 12.6 54.7 62 5.5 41.9 13.01 0.512
17:11 1013 29.91 842 24.86 12.5 54.5 62 5.4 41.8 12.91 0.508
17:12 1013 29.91 842 24.86 12.4 54.3 63 5.6 42.2 12.81 0.504
17:13 1013 29.91 842 24.86 12.4 54.2 65 6 42.8 12.77 0.503
17:14 1013 29.91 842 24.86 12.3 54.2 66 6.3 43.3 12.76 0.502
17:15 1013 29.91 843 24.89 12.3 54.1 65 5.9 42.6 12.74 0.502
17:16 1013 29.91 843 24.89 12.3 54.2 61 5 41.1 12.74 0.502
17:17 1013 29.91 843 24.89 12.3 54.1 64 5.8 42.4 12.7 0.5
17:18 1014 29.94 843 24.89 12.2 54 64 5.8 42.4 12.69 0.5
17:19 1014 29.94 843 24.89 12.2 53.9 65 5.8 42.4 12.6 0.496
17:20 1014 29.94 843 24.89 12 53.7 63 5.3 41.6 12.45 0.49
17:21 1014 29.94 843 24.89 11.9 53.5 67 6 42.8 12.38 0.487
17:22 1014 29.94 843 24.89 11.9 53.4 65 5.5 42 12.31 0.485
17:23 1014 29.94 843 24.89 11.8 53.3 68 6.1 42.9 12.25 0.482
17:24 1014 29.94 843 24.89 11.8 53.2 66 5.6 42.1 12.21 0.481
17:25 1014 29.94 843 24.89 11.7 53.1 68 6 42.9 12.15 0.478
17:26 1014 29.94 843 24.89 11.7 53 67 5.8 42.4 12.03 0.474
17:27 1014 29.94 843 24.89 11.5 52.7 68 5.9 42.7 11.96 0.471
17:28 1014 29.94 843 24.89 11.4 52.5 68 5.8 42.4 11.84 0.466
17:29 1014 29.94 843 24.89 11.3 52.3 70 6.1 43 11.67 0.459
17:30 1014 29.94 843 24.89 11.2 52.1 72 6.3 43.3 11.54 0.454
17:31 1014 29.94 843 24.89 11 51.8 72 6.2 43.2 11.45 0.451
17:32 1014 29.94 843 24.89 10.9 51.7 74 6.6 43.8 11.31 0.445
17:33 1014 29.94 843 24.89 10.8 51.4 72 6 42.8 11.2 0.441
17:34 1014 29.94 843 24.89 10.7 51.2 72 5.9 42.6 11.08 0.436
17:35 1014 29.94 844 24.92 10.5 51 72 5.8 42.4 10.94 0.431
17:36 1014 29.94 843 24.89 10.5 50.9 73 5.8 42.5 10.87 0.428
17:37 1014 29.94 844 24.92 10.4 50.7 73 5.9 42.6 10.83 0.426
17:38 1014 29.94 844 24.92 10.4 50.7 72 5.7 42.2 10.75 0.423
17:39 1014 29.94 844 24.92 10.4 50.7 73 5.8 42.4 10.77 0.424
17:40 1014 29.94 844 24.92 10.3 50.6 76 6.2 43.2 10.73 0.422
17:41 1014 29.94 844 24.92 10.2 50.4 76 6.1 43 10.67 0.42
17:42 1014 29.94 844 24.92 10.2 50.3 75 5.9 42.7 10.57 0.416
17:43 1014 29.94 843 24.89 10.2 50.3 76 6.1 43 10.53 0.415
17:44 1014 29.94 843 24.89 10.1 50.2 76 6.1 43.1 10.53 0.415
17:45 1014 29.94 844 24.92 10.1 50.1 79 6.5 43.8 10.5 0.413
17:46 1014 29.94 844 24.92 10 50 81 6.9 44.5 10.41 0.41
17:47 1014 29.94 844 24.92 9.9 49.9 81 6.8 44.2 10.34 0.407
17:48 1014 29.94 844 24.92 9.9 49.8 82 6.9 44.4 10.3 0.406
17:49 1014 29.94 844 24.92 9.9 49.7 79 6.4 43.6 10.24 0.403
17:50 1014 29.94 844 24.92 9.8 49.7 84 7.2 45 10.26 0.404
17:51 1014 29.94 844 24.92 9.8 49.6 81 6.6 43.9 10.19 0.401
17:52 1014 29.94 844 24.92 9.8 49.6 81 6.7 44 10.18 0.401
17:53 1014 29.94 844 24.92 9.8 49.6 81 6.7 44.1 10.12 0.398
17:54 1015 29.97 844 24.92 9.7 49.5 81 6.6 43.8 10.11 0.398
17:55 1015 29.97 844 24.92 9.7 49.4 81 6.6 43.8 10.08 0.397
17:56 1015 29.97 844 24.92 9.6 49.3 81 6.5 43.7 10.03 0.395
17:57 1015 29.97 844 24.92 9.6 49.3 80 6.4 43.5 10.03 0.395
17:58 1015 29.97 844 24.92 9.6 49.2 80 6.3 43.4 9.92 0.391
17:59 1015 29.97 844 24.92 9.5 49.1 81 6.3 43.4 9.82 0.387
18:00 1015 29.97 844 24.92 9.3 48.8 81 6.3 43.4 9.69 0.381
18:01 1015 29.97 844 24.92 9.2 48.6 80 6 42.8 9.64 0.38
18:02 1015 29.97 844 24.92 9.1 48.5 80 5.9 42.6 9.56 0.376
18:03 1015 29.97 844 24.92 9.1 48.4 81 6 42.8 9.52 0.375
18:04 1015 29.97 844 24.92 9.1 48.3 81 6.1 43 9.44 0.372
18:05 1015 29.97 844 24.92 9 48.3 79 5.7 42.2 9.4 0.37
18:06 1015 29.97 844 24.92 9 48.2 78 5.4 41.6 9.34 0.368
18:07 1015 29.97 844 24.92 9 48.2 79 5.5 41.9 9.32 0.367
18:08 1015 29.97 844 24.92 9 48.1 78 5.4 41.7 9.33 0.367
18:09 1015 29.97 844 24.92 8.9 48 77 5 41.1 9.24 0.364
18:10 1015 29.97 844 24.92 8.8 47.8 78 5.2 41.4 9.21 0.363
18:11 1015 29.97 844 24.92 8.8 47.8 79 5.4 41.6 9.16 0.361
18:12 1015 29.97 844 24.92 8.8 47.8 75 4.6 40.3 9.12 0.359
18:13 1015 29.97 844 24.92 8.7 47.7 78 5.2 41.4 9.12 0.359
18:14 1015 29.97 844 24.92 8.7 47.6 79 5.2 41.3 9.09 0.358
18:15 1015 29.97 844 24.92 8.6 47.5 78 5 41 9.02 0.355
18:16 1015 29.97 844 24.92 8.6 47.5 77 4.9 40.8 8.98 0.354
18:17 1015 29.97 844 24.92 8.6 47.5 79 5.1 41.2 9.01 0.355
18:18 1015 29.97 844 24.92 8.5 47.4 78 5 41 8.97 0.353
18:19 1015 29.97 844 24.92 8.5 47.4 77 4.8 40.7 8.93 0.352
18:20 1015 29.97 844 24.92 8.5 47.4 78 4.9 40.8 8.94 0.352
18:21 1015 29.97 844 24.92 8.5 47.3 78 5 40.9 8.88 0.35
18:22 1015 29.97 844 24.92 8.5 47.3 79 5.1 41.2 8.94 0.352
18:23 1015 29.97 844 24.92 8.5 47.3 79 5.1 41.2 8.94 0.352
18:24 1015 29.97 844 24.92 8.4 47.2 81 5.4 41.6 8.92 0.351
18:25 1015 29.97 844 24.92 8.5 47.2 79 5 41 8.9 0.35
18:26 1015 29.97 845 24.95 8.5 47.3 76 4.6 40.3 8.89 0.35
18:27 1015 29.97 845 24.95 8.5 47.4 78 5 41 8.91 0.351
18:28 1015 29.97 845 24.95 8.5 47.3 78 4.9 40.9 8.91 0.351
18:29 1015 29.97 845 24.95 8.5 47.3 80 5.3 41.5 8.9 0.35
18:30 1016 30 845 24.95 8.5 47.2 80 5.2 41.4 8.86 0.349
18:31 1016 30 845 24.95 8.4 47.1 81 5.4 41.7 8.81 0.347
18:32 1016 30 845 24.95 8.3 47 80 5 41 8.71 0.343
18:33 1015 29.97 845 24.95 8.3 47 80 5.1 41.2 8.71 0.343
18:34 1015 29.97 845 24.95 8.3 46.9 81 5.3 41.5 8.69 0.342
18:35 1015 29.97 845 24.95 8.3 46.9 81 5.2 41.4 8.67 0.341
18:36 1015 29.97 845 24.95 8.2 46.7 81 5.1 41.1 8.56 0.337
18:37 1015 29.97 845 24.95 8.1 46.7 82 5.2 41.4 8.57 0.337
18:38 1015 29.97 845 24.95 8.2 46.7 81 5.1 41.1 8.55 0.337
18:39 1015 29.97 845 24.95 8.1 46.6 81 5.1 41.2 8.53 0.336
18:40 1015 29.97 845 24.95 8.2 46.7 83 5.4 41.7 8.53 0.336
18:41 1015 29.97 845 24.95 8.2 46.7 82 5.4 41.6 8.59 0.338
18:42 1015 29.97 845 24.95 8.2 46.7 84 5.6 42 8.54 0.336
18:43 1015 29.97 845 24.95 8.2 46.7 83 5.5 41.9 8.57 0.337
18:44 1015 29.97 845 24.95 8.2 46.7 84 5.6 42 8.58 0.338
18:45 1015 29.97 845 24.95 8.2 46.7 84 5.7 42.3 8.6 0.339
18:46 1015 29.97 845 24.95 8.2 46.7 83 5.5 41.9 8.61 0.339
18:47 1015 29.97 845 24.95 8.2 46.7 85 5.9 42.6 8.58 0.338
18:48 1015 29.97 845 24.95 8.2 46.8 86 6 42.7 8.59 0.338
18:49 1015 29.97 845 24.95 8.2 46.7 85 5.7 42.3 8.57 0.337
18:50 1015 29.97 845 24.95 8.2 46.7 85 5.8 42.4 8.55 0.337
18:51 1015 29.97 845 24.95 8.2 46.7 85 5.7 42.3 8.52 0.335
18:52 1015 29.97 845 24.95 8.1 46.6 85 5.7 42.3 8.51 0.335
18:53 1016 30 845 24.95 8.1 46.6 82 5.2 41.4 8.49 0.334
18:54 1016 30 845 24.95 8.1 46.6 83 5.5 41.9 8.5 0.335
18:55 1016 30 845 24.95 8.1 46.6 85 5.8 42.4 8.51 0.335
18:56 1016 30 845 24.95 8.1 46.5 85 5.7 42.2 8.48 0.334
18:57 1016 30 845 24.95 8 46.5 85 5.6 42.1 8.39 0.33
18:58 1016 30 845 24.95 8 46.5 85 5.7 42.2 8.4 0.331
18:59 1016 30 845 24.95 8 46.4 86 5.7 42.3 8.39 0.33
19:00 1016 30 845 24.95 8 46.4 84 5.4 41.7 8.35 0.329
19:01 1016 30 845 24.95 8 46.3 84 5.4 41.8 8.34 0.328
19:02 1016 30 845 24.95 8 46.3 85 5.6 42 8.33 0.328
19:03 1016 30 845 24.95 8 46.4 84 5.4 41.7 8.37 0.33
19:04 1016 30 845 24.95 8 46.5 85 5.6 42.1 8.36 0.329
19:05 1016 30 845 24.95 8 46.4 84 5.4 41.8 8.37 0.33
19:06 1016 30 845 24.95 8 46.5 84 5.6 42 8.39 0.33
19:07 1016 30 845 24.95 8 46.4 83 5.3 41.5 8.39 0.33
19:08 1016 30 845 24.95 8.1 46.5 85 5.7 42.2 8.42 0.331
19:09 1016 30 845 24.95 8.1 46.5 85 5.7 42.3 8.43 0.332
19:10 1016 30 845 24.95 8.1 46.5 83 5.3 41.5 8.39 0.33
19:11 1016 30 845 24.95 8 46.4 83 5.2 41.4 8.35 0.329
19:12 1016 30 845 24.95 8 46.4 83 5.3 41.6 8.33 0.328
19:13 1016 30 845 24.95 8 46.3 82 5 41.1 8.34 0.328
19:14 1016 30 845 24.95 8 46.3 83 5.3 41.5 8.3 0.327
19:15 1016 30 845 24.95 7.9 46.3 82 5.1 41.2 8.3 0.327
19:16 1016 30 845 24.95 7.9 46.2 85 5.5 41.8 8.26 0.325
19:17 1016 30 845 24.95 7.8 46.1 84 5.3 41.5 8.22 0.324
19:18 1016 30 845 24.95 7.8 46 83 5.2 41.3 8.18 0.322
19:19 1016 30 845 24.95 7.8 46 85 5.3 41.6 8.13 0.32
19:20 1016 30 845 24.95 7.7 45.9 85 5.3 41.5 8.11 0.319
19:21 1016 30 845 24.95 7.7 45.8 83 5 41 8.08 0.318
19:22 1016 30 845 24.95 7.6 45.7 85 5.3 41.6 8 0.315
19:23 1016 30 845 24.95 7.6 45.8 85 5.2 41.4 8.04 0.317
19:24 1016 30 845 24.95 7.6 45.6 84 5 41.1 7.97 0.314
19:25 1016 30 845 24.95 7.6 45.6 84 5 41.1 7.96 0.313
19:26 1016 30 845 24.95 7.5 45.6 84 5 40.9 7.9 0.311
19:27 1016 30 845 24.95 7.5 45.5 84 5 41 7.91 0.311
19:28 1016 30 845 24.95 7.5 45.5 85 5.2 41.3 7.87 0.31
19:29 1016 30 845 24.95 7.5 45.5 86 5.3 41.5 7.89 0.311
19:30 1016 30 845 24.95 7.5 45.5 86 5.3 41.5 7.86 0.309
19:31 1016 30 845 24.95 7.5 45.5 85 5.2 41.3 7.88 0.31
19:32 1016 30 845 24.95 7.5 45.4 85 5.2 41.3 7.83 0.308
19:33 1016 30 845 24.95 7.5 45.5 87 5.4 41.8 7.86 0.309
19:34 1016 30 845 24.95 7.5 45.5 86 5.4 41.7 7.83 0.308
19:35 1016 30 845 24.95 7.4 45.4 86 5.2 41.3 7.83 0.308
19:36 1016 30 845 24.95 7.5 45.4 86 5.3 41.5 7.82 0.308
19:37 1016 30 845 24.95 7.5 45.4 84 5 41 7.8 0.307
19:38 1016 30 845 24.95 7.5 45.4 83 4.8 40.6 7.8 0.307
19:39 1016 30 845 24.95 7.4 45.3 83 4.6 40.4 7.77 0.306
19:40 1016 30 845 24.95 7.5 45.4 83 4.7 40.5 7.75 0.305
19:41 1016 30 845 24.95 7.5 45.4 84 4.9 40.8 7.79 0.307
19:42 1016 30 845 24.95 7.5 45.4 84 5 41 7.77 0.306
19:43 1016 30 845 24.95 7.4 45.4 84 5 40.9 7.82 0.308
19:44 1016 30 845 24.95 7.4 45.3 85 5.1 41.2 7.79 0.307
19:45 1016 30 845 24.95 7.5 45.4 86 5.2 41.4 7.81 0.307
19:46 1016 30 845 24.95 7.5 45.4 84 5 40.9 7.81 0.307
19:47 1016 30 845 24.95 7.4 45.3 83 4.7 40.5 7.75 0.305
19:48 1016 30 845 24.95 7.5 45.4 84 4.9 40.8 7.76 0.306
19:49 1016 30 845 24.95 7.4 45.4 84 5 41 7.77 0.306
19:50 1016 30 845 24.95 7.5 45.4 85 5.1 41.2 7.84 0.309
19:51 1016 30 845 24.95 7.5 45.4 86 5.2 41.4 7.76 0.306
19:52 1016 30 845 24.95 7.5 45.4 87 5.4 41.7 7.81 0.307
19:53 1016 30 845 24.95 7.5 45.4 87 5.5 41.9 7.84 0.309
19:54 1016 30 845 24.95 7.5 45.4 89 5.7 42.3 7.82 0.308
19:55 1016 30 845 24.95 7.4 45.3 88 5.5 41.9 7.78 0.306
19:56 1016 30 845 24.95 7.4 45.3 89 5.7 42.2 7.76 0.306
19:57 1016 30 845 24.95 7.4 45.3 89 5.7 42.3 7.78 0.306
19:58 1016 30 845 24.95 7.3 45.2 89 5.7 42.3 7.75 0.305
19:59 1016 30 845 24.95 7.4 45.2 90 5.8 42.4 7.75 0.305
20:00 1016 30 845 24.95 7.3 45.2 90 5.8 42.4 7.68 0.302
20:01 1016 30 845 24.95 7.3 45.2 90 5.8 42.4 7.7 0.303
20:02 1016 30 845 24.95 7.3 45.1 90 5.8 42.4 7.73 0.304
20:03 1016 30 845 24.95 7.3 45.2 90 5.8 42.5 7.73 0.304
20:04 1016 30 845 24.95 7.3 45.1 91 5.9 42.5 7.66 0.302
20:05 1016 30 845 24.95 7.3 45.1 90 5.8 42.4 7.7 0.303
20:06 1016 30 845 24.95 7.3 45.1 90 5.7 42.3 7.65 0.301
20:07 1016 30 845 24.95 7.3 45.2 90 5.9 42.6 7.68 0.302
20:08 1016 30 845 24.95 7.3 45.1 89 5.7 42.2 7.71 0.304
20:09 1016 30 845 24.95 7.3 45.2 90 5.8 42.4 7.68 0.302
20:10 1016 30 845 24.95 7.4 45.2 90 5.8 42.4 7.73 0.304
20:11 1016 30 845 24.95 7.3 45.2 89 5.6 42.1 7.67 0.302
20:12 1016 30 845 24.95 7.3 45.2 89 5.6 42.1 7.67 0.302
20:13 1016 30 845 24.95 7.4 45.3 88 5.5 41.9 7.66 0.302
20:14 1016 30 845 24.95 7.4 45.2 89 5.6 42.1 7.71 0.304
20:15 1016 30 845 24.95 7.3 45.2 89 5.7 42.2 7.72 0.304
20:16 1016 30 845 24.95 7.3 45.2 90 5.8 42.4 7.7 0.303
20:17 1016 30 845 24.95 7.3 45.2 90 5.9 42.6 7.68 0.302
20:18 1016 30 845 24.95 7.2 45 90 5.8 42.4 7.64 0.301
20:19 1016 30 845 24.95 7.2 45 91 5.8 42.5 7.65 0.301
20:20 1016 30 845 24.95 7.2 45 91 5.8 42.5 7.55 0.297
20:21 1016 30 845 24.95 7.1 44.9 91 5.8 42.5 7.53 0.296
20:22 1016 30 845 24.95 7.1 44.8 92 5.8 42.5 7.53 0.296
20:23 1016 30 845 24.95 7.1 44.8 92 5.8 42.5 7.51 0.296
20:24 1016 30 845 24.95 7.1 44.7 92 5.8 42.5 7.45 0.293
20:25 1016 30 845 24.95 7 44.7 92 5.8 42.5 7.45 0.293
20:26 1016 30 845 24.95 7 44.6 93 5.9 42.7 7.41 0.292
20:27 1016 30 845 24.95 7 44.6 93 6 42.7 7.38 0.291
20:28 1016 30 845 24.95 6.9 44.5 93 5.9 42.7 7.35 0.289
20:29 1016 30 845 24.95 6.9 44.5 93 5.8 42.5 7.29 0.287
20:30 1016 30 845 24.95 6.9 44.5 92 5.8 42.4 7.3 0.287
20:31 1016 30 845 24.95 6.8 44.3 92 5.7 42.2 7.22 0.284
20:32 1016 30 845 24.95 6.8 44.3 92 5.6 42.2 7.23 0.285
20:33 1016 30 845 24.95 6.8 44.3 92 5.7 42.2 7.21 0.284
20:34 1016 30 845 24.95 6.9 44.3 93 5.7 42.3 7.24 0.285
20:35 1016 30 845 24.95 6.8 44.3 92 5.6 42.2 7.17 0.282
20:36 1016 30 845 24.95 6.8 44.2 92 5.6 42.1 7.21 0.284
20:37 1016 30 845 24.95 6.8 44.2 92 5.6 42 7.21 0.284
20:38 1016 30 845 24.95 6.8 44.2 91 5.5 41.9 7.17 0.282
20:39 1016 30 845 24.95 6.8 44.3 92 5.6 42.1 7.19 0.283
20:40 1016 30 845 24.95 6.8 44.2 92 5.6 42.1 7.2 0.283
20:41 1016 30 845 24.95 6.8 44.2 92 5.6 42.1 7.17 0.282
20:42 1016 30 845 24.95 6.8 44.2 92 5.6 42.1 7.16 0.282
20:43 1016 30 845 24.95 6.8 44.2 93 5.7 42.2 7.21 0.284
20:44 1016 30 845 24.95 6.8 44.2 93 5.7 42.3 7.18 0.283
20:45 1016 30 845 24.95 6.8 44.2 93 5.7 42.3 7.19 0.283
20:46 1016 30 845 24.95 6.8 44.3 93 5.8 42.4 7.23 0.285
20:47 1016 30 845 24.95 6.9 44.4 92 5.7 42.3 7.23 0.285
20:48 1016 30 845 24.95 6.9 44.3 92 5.6 42 7.21 0.284
20:49 1016 30 845 24.95 6.9 44.4 91 5.6 42 7.27 0.286
20:50 1016 30 845 24.95 6.9 44.5 91 5.6 42.1 7.28 0.287
20:51 1016 30 845 24.95 7 44.5 91 5.6 42 7.34 0.289
20:52 1016 30 845 24.95 7 44.6 91 5.6 42 7.32 0.288
20:53 1016 30 845 24.95 7 44.6 91 5.6 42.1 7.35 0.289
20:54 1016 30 845 24.95 7 44.5 91 5.6 42.1 7.31 0.288
20:55 1016 30 845 24.95 7 44.5 91 5.5 42 7.31 0.288
20:56 1016 30 845 24.95 7 44.5 90 5.5 41.9 7.31 0.288
20:57 1016 30 845 24.95 6.9 44.5 91 5.5 41.9 7.31 0.288
20:58 1016 30 845 24.95 6.9 44.4 91 5.5 42 7.29 0.287
20:59 1016 30 845 24.95 6.9 44.5 91 5.6 42.1 7.32 0.288
21:00 1016 30 845 24.95 6.9 44.5 91 5.6 42.1 7.34 0.289
21:01 1016 30 845 24.95 7 44.5 91 5.6 42.1 7.3 0.287
21:02 1016 30 845 24.95 7 44.6 91 5.6 42.1 7.32 0.288
21:03 1016 30 845 24.95 7 44.5 91 5.6 42.1 7.34 0.289
21:04 1016 30 845 24.95 6.9 44.5 91 5.6 42.1 7.34 0.289
21:05 1016 30 845 24.95 6.9 44.5 91 5.6 42.1 7.33 0.289
21:06 1016 30 845 24.95 6.9 44.5 91 5.6 42.1 7.32 0.288
21:07 1016 30 845 24.95 6.9 44.5 91 5.6 42.1 7.32 0.288
21:08 1016 30 845 24.95 6.9 44.4 92 5.6 42.1 7.29 0.287
21:09 1016 30 845 24.95 6.9 44.5 92 5.7 42.3 7.31 0.288
21:10 1016 30 845 24.95 6.9 44.5 92 5.8 42.4 7.31 0.288
21:11 1016 30 845 24.95 6.9 44.5 93 5.8 42.5 7.32 0.288
21:12 1016 30 845 24.95 6.9 44.5 93 5.9 42.6 7.34 0.289
21:13 1016 30 845 24.95 6.9 44.5 93 5.9 42.6 7.31 0.288
21:14 1016 30 845 24.95 6.9 44.5 93 5.9 42.7 7.3 0.287
21:15 1016 30 845 24.95 6.9 44.5 93 5.9 42.7 7.34 0.289
21:16 1016 30 845 24.95 6.9 44.5 93 5.9 42.6 7.36 0.29
21:17 1016 30 845 24.95 7 44.5 93 5.9 42.6 7.35 0.289
21:18 1016 30 845 24.95 7 44.5 93 5.9 42.6 7.36 0.29
21:19 1016 30 845 24.95 7 44.5 93 5.9 42.6 7.37 0.29
21:20 1016 30 845 24.95 7 44.5 93 5.9 42.7 7.35 0.289
21:21 1016 30 845 24.95 6.9 44.5 93 5.9 42.7 7.34 0.289
21:22 1016 30 845 24.95 7 44.5 93 6 42.7 7.35 0.289
21:23 1016 30 845 24.95 7 44.5 93 5.9 42.7 7.35 0.289
21:24 1016 30 845 24.95 7 44.6 93 6 42.7 7.35 0.289
21:25 1016 30 845 24.95 7 44.6 93 6 42.8 7.35 0.289
21:26 1016 30 845 24.95 6.9 44.5 93 6 42.7 7.27 0.286
21:27 1016 30 845 24.95 7 44.5 94 6 42.8 7.33 0.289
21:28 1016 30 845 24.95 6.9 44.5 94 6 42.8 7.36 0.29
21:29 1016 30 845 24.95 6.9 44.5 93 5.9 42.7 7.33 0.289
21:30 1016 30 845 24.95 6.9 44.5 93 5.9 42.7 7.32 0.288
21:31 1016 30 845 24.95 7 44.5 93 6 42.7 7.35 0.289
21:32 1016 30 845 24.95 6.9 44.5 93 6 42.7 7.32 0.288
21:33 1016 30 845 24.95 7 44.5 93 5.9 42.7 7.36 0.29
21:34 1016 30 845 24.95 7 44.5 93 5.9 42.7 7.34 0.289
21:35 1016 30 845 24.95 7 44.5 93 5.9 42.7 7.31 0.288
21:36 1016 30 845 24.95 6.9 44.5 93 5.9 42.6 7.35 0.289
21:37 1016 30 845 24.95 7 44.5 93 5.8 42.5 7.34 0.289
21:38 1016 30 845 24.95 7 44.6 92 5.8 42.5 7.34 0.289
21:39 1016 30 845 24.95 7 44.5 92 5.8 42.4 7.32 0.288
21:40 1016 30 845 24.95 6.9 44.5 93 5.8 42.5 7.37 0.29
21:41 1016 30 845 24.95 7 44.6 93 5.9 42.6 7.34 0.289
21:42 1016 30 845 24.95 7 44.5 93 5.9 42.5 7.35 0.289
21:43 1016 30 845 24.95 6.9 44.4 92 5.8 42.4 7.31 0.288
21:44 1016 30 845 24.95 7 44.5 92 5.8 42.4 7.27 0.286
21:45 1016 30 845 24.95 6.9 44.5 92 5.7 42.3 7.32 0.288
21:46 1016 30 845 24.95 7 44.5 92 5.7 42.3 7.32 0.288
21:47 1016 30 845 24.95 7 44.5 92 5.8 42.4 7.35 0.289
21:48 1016 30 845 24.95 7 44.5 92 5.7 42.3 7.33 0.289
21:49 1016 30 845 24.95 6.9 44.4 92 5.7 42.3 7.35 0.289
21:50 1016 30 845 24.95 6.9 44.5 92 5.7 42.2 7.31 0.288
21:51 1016 30 845 24.95 6.9 44.5 92 5.7 42.2 7.26 0.286
21:52 1016 30 845 24.95 6.9 44.4 92 5.6 42.1 7.26 0.286
21:53 1016 30 845 24.95 6.9 44.4 90 5.4 41.7 7.22 0.284
21:54 1016 30 845 24.95 6.9 44.5 89 5.2 41.4 7.25 0.285
21:55 1016 30 845 24.95 6.9 44.5 89 5.3 41.5 7.27 0.286
21:56 1016 30 845 24.95 7 44.5 89 5.3 41.5 7.28 0.287
21:57 1016 30 845 24.95 7 44.5 89 5.3 41.5 7.27 0.286
21:58 1016 30 845 24.95 6.9 44.5 89 5.3 41.5 7.29 0.287
21:59 1016 30 845 24.95 6.9 44.5 90 5.3 41.6 7.28 0.287
22:00 1016 30 845 24.95 6.9 44.4 90 5.4 41.6 7.24 0.285
22:01 1016 30 845 24.95 6.8 44.3 90 5.4 41.7 7.22 0.284
22:02 1016 30 845 24.95 6.9 44.3 91 5.5 41.9 7.23 0.285
22:03 1016 30 845 24.95 6.8 44.3 91 5.5 41.8 7.23 0.285
22:04 1016 30 845 24.95 6.8 44.2 91 5.4 41.7 7.17 0.282
22:05 1016 30 845 24.95 6.8 44.3 90 5.3 41.5 7.14 0.281
22:06 1016 30 845 24.95 6.9 44.4 90 5.4 41.6 7.22 0.284
22:07 1016 30 845 24.95 6.9 44.4 90 5.4 41.7 7.23 0.285
22:08 1016 30 845 24.95 6.9 44.3 89 5.2 41.4 7.2 0.283
22:09 1016 30 845 24.95 6.9 44.4 89 5.2 41.4 7.22 0.284
22:10 1016 30 845 24.95 6.9 44.4 89 5.2 41.4 7.23 0.285
22:11 1016 30 845 24.95 6.8 44.3 89 5.2 41.3 7.24 0.285
22:12 1016 30 845 24.95 6.9 44.3 89 5.2 41.3 7.24 0.285
22:13 1016 30 845 24.95 6.9 44.4 89 5.1 41.2 7.23 0.285
22:14 1016 30 845 24.95 6.9 44.4 88 5.1 41.2 7.24 0.285
22:15 1016 30 845 24.95 6.9 44.3 88 5.1 41.1 7.25 0.285
22:16 1016 30 845 24.95 6.9 44.4 88 5.1 41.3 7.26 0.286
22:17 1016 30 845 24.95 6.9 44.4 88 5.1 41.2 7.26 0.286
22:18 1016 30 845 24.95 6.9 44.4 89 5.2 41.3 7.26 0.286
22:19 1016 30 845 24.95 6.9 44.4 89 5.2 41.3 7.26 0.286
22:20 1016 30 845 24.95 6.9 44.4 89 5.2 41.3 7.27 0.286
22:21 1016 30 845 24.95 6.9 44.5 89 5.2 41.4 7.26 0.286
22:22 1016 30 846 24.98 7 44.5 89 5.3 41.6 7.3 0.287
22:23 1016 30 846 24.98 6.9 44.4 90 5.3 41.6 7.3 0.287
22:24 1016 30 846 24.98 6.9 44.4 90 5.4 41.7 7.26 0.286
22:25 1016 30 846 24.98 6.9 44.4 91 5.5 41.9 7.3 0.287
22:26 1016 30 846 24.98 6.9 44.4 91 5.5 42 7.28 0.287
22:27 1016 30 846 24.98 6.9 44.4 92 5.6 42.1 7.28 0.287
22:28 1016 30 846 24.98 6.9 44.4 92 5.7 42.2 7.28 0.287
22:29 1016 30 846 24.98 6.8 44.3 92 5.7 42.2 7.24 0.285
22:30 1016 30 846 24.98 6.9 44.4 93 5.7 42.3 7.22 0.284
22:31 1016 30 846 24.98 6.9 44.4 93 5.8 42.4 7.27 0.286
22:32 1016 30 846 24.98 6.9 44.4 93 5.8 42.4 7.25 0.285
22:33 1016 30 846 24.98 6.8 44.3 93 5.8 42.4 7.23 0.285
22:34 1016 30 846 24.98 6.8 44.3 93 5.8 42.4 7.21 0.284
22:35 1016 30 846 24.98 6.8 44.3 93 5.8 42.4 7.2 0.283
22:36 1016 30 846 24.98 6.8 44.3 93 5.8 42.4 7.24 0.285
22:37 1016 30 845 24.95 6.8 44.3 93 5.7 42.3 7.21 0.284
22:38 1016 30 845 24.95 6.8 44.3 92 5.7 42.2 7.21 0.284
22:39 1016 30 845 24.95 6.8 44.3 92 5.6 42.2 7.21 0.284
22:40 1016 30 846 24.98 6.8 44.3 92 5.6 42 7.21 0.284
22:41 1016 30 846 24.98 6.8 44.3 92 5.6 42 7.23 0.285
22:42 1016 30 846 24.98 6.8 44.3 91 5.4 41.8 7.15 0.281
22:43 1016 30 846 24.98 6.9 44.4 90 5.3 41.6 7.2 0.283
22:44 1016 30 846 24.98 6.9 44.4 89 5.3 41.5 7.24 0.285
22:45 1016 30 846 24.98 6.9 44.5 90 5.3 41.6 7.26 0.286
22:46 1016 30 845 24.95 6.9 44.4 90 5.4 41.7 7.27 0.286
22:47 1016 30 845 24.95 6.9 44.4 90 5.4 41.7 7.26 0.286
22:48 1016 30 845 24.95 6.9 44.3 90 5.4 41.6 7.22 0.284
22:49 1016 30 845 24.95 6.9 44.4 90 5.4 41.7 7.21 0.284
22:50 1016 30 845 24.95 6.8 44.3 90 5.3 41.6 7.24 0.285
22:51 1016 30 845 24.95 6.9 44.3 90 5.3 41.6 7.22 0.284
22:52 1016 30 845 24.95 6.8 44.3 90 5.4 41.7 7.22 0.284
22:53 1016 30 845 24.95 6.8 44.2 90 5.4 41.6 7.22 0.284
22:54 1016 30 845 24.95 6.8 44.3 91 5.4 41.8 7.2 0.283
22:55 1016 30 845 24.95 6.8 44.2 91 5.5 41.8 7.15 0.281
22:56 1016 30 845 24.95 6.7 44.1 92 5.4 41.8 7.12 0.28
22:57 1016 30 845 24.95 6.7 44.1 92 5.5 41.9 7.12 0.28
22:58 1016 30 845 24.95 6.7 44.1 92 5.5 41.9 7.08 0.279
22:59 1016 30 845 24.95 6.7 44 92 5.5 41.9 7.06 0.278
23:00 1016 30 845 24.95 6.7 44 92 5.5 41.8 7.03 0.277
23:01 1016 30 845 24.95 6.7 44 92 5.4 41.8 7.04 0.277
23:02 1016 30 845 24.95 6.7 44 92 5.4 41.7 7.06 0.278
23:03 1016 30 845 24.95 6.7 44 92 5.4 41.7 7.05 0.278
23:04 1016 30 845 24.95 6.7 44 91 5.3 41.6 7.04 0.277
23:05 1016 30 845 24.95 6.7 44.1 91 5.3 41.6 7.06 0.278
23:06 1016 30 845 24.95 6.7 44.1 91 5.3 41.6 7.03 0.277
23:07 1016 30 845 24.95 6.7 44.1 90 5.2 41.4 7.08 0.279
23:08 1016 30 845 24.95 6.8 44.2 90 5.3 41.5 7.08 0.279
23:09 1016 30 845 24.95 6.8 44.2 90 5.2 41.4 7.13 0.281
23:10 1016 30 845 24.95 6.8 44.2 90 5.2 41.4 7.13 0.281
23:11 1016 30 845 24.95 6.8 44.2 90 5.2 41.4 7.13 0.281
23:12 1016 30 845 24.95 6.8 44.2 90 5.2 41.3 7.13 0.281
23:13 1016 30 845 24.95 6.8 44.2 89 5.2 41.3 7.15 0.281
23:14 1016 30 845 24.95 6.8 44.2 88 4.9 40.9 7.14 0.281
23:15 1016 30 845 24.95 6.9 44.3 87 4.8 40.6 7.17 0.282
23:16 1016 30 845 24.95 6.9 44.3 86 4.7 40.5 7.15 0.281
23:17 1016 30 845 24.95 6.9 44.4 86 4.6 40.3 7.22 0.284
23:18 1016 30 845 24.95 6.9 44.4 86 4.7 40.4 7.26 0.286
23:19 1016 30 845 24.95 6.8 44.3 85 4.5 40.1 7.21 0.284
23:20 1016 30 845 24.95 6.8 44.3 86 4.7 40.4 7.2 0.283
23:21 1016 30 845 24.95 6.9 44.4 87 4.8 40.6 7.21 0.284
23:22 1016 30 845 24.95 6.9 44.3 87 4.9 40.8 7.24 0.285
23:23 1016 30 845 24.95 6.8 44.3 88 5 40.9 7.23 0.285
23:24 1016 30 845 24.95 6.8 44.3 89 5.1 41.2 7.22 0.284
23:25 1016 30 845 24.95 6.8 44.2 89 5.1 41.2 7.17 0.282
23:26 1016 30 845 24.95 6.7 44.1 89 5.1 41.1 7.14 0.281
23:27 1016 30 845 24.95 6.7 44.1 90 5.1 41.3 7.11 0.28
23:28 1016 30 845 24.95 6.7 44.1 90 5.2 41.3 7.08 0.279
23:29 1016 30 845 24.95 6.7 44 90 5.1 41.2 7.04 0.277
23:30 1016 30 845 24.95 6.7 44.1 90 5.2 41.4 7.05 0.278
23:31 1016 30 845 24.95 6.7 44 91 5.3 41.5 7.08 0.279
23:32 1016 30 845 24.95 6.7 44 91 5.2 41.4 7.07 0.278
23:33 1016 30 845 24.95 6.6 43.9 90 5.1 41.3 7.06 0.278
23:34 1016 30 845 24.95 6.6 43.9 90 5.1 41.2 7.05 0.278
23:35 1016 30 845 24.95 6.6 43.9 90 5.1 41.2 7.03 0.277
23:36 1016 30 845 24.95 6.6 43.9 90 5 41.1 7 0.276
23:37 1016 30 845 24.95 6.6 43.9 90 5.1 41.2 6.996 0.275
23:38 1016 30 845 24.95 6.6 43.9 90 5.1 41.2 7 0.276
23:39 1016 30 845 24.95 6.6 43.9 90 5.1 41.2 6.99 0.275
23:40 1016 30 845 24.95 6.6 43.8 90 5.1 41.1 6.99 0.275
23:41 1016 30 845 24.95 6.6 43.9 91 5.2 41.3 7.01 0.276
23:42 1016 30 845 24.95 6.6 43.8 91 5.2 41.4 6.973 0.275
23:43 1016 30 845 24.95 6.6 43.8 91 5.2 41.4 6.985 0.275
23:44 1016 30 845 24.95 6.5 43.8 91 5.2 41.4 6.945 0.273
23:45 1016 30 845 24.95 6.5 43.7 92 5.2 41.4 6.956 0.274
23:46 1016 30 845 24.95 6.5 43.7 91 5.2 41.4 6.922 0.273
23:47 1016 30 845 24.95 6.5 43.7 91 5.2 41.3 6.888 0.271
23:48 1016 30 845 24.95 6.5 43.7 91 5.2 41.3 6.854 0.27
23:49 1016 30 845 24.95 6.5 43.7 91 5.1 41.2 6.849 0.27
23:50 1016 30 845 24.95 6.5 43.7 91 5.1 41.2 6.837 0.269
23:51 1016 30 845 24.95 6.5 43.7 91 5.1 41.2 6.877 0.271
23:52 1016 30 845 24.95 6.5 43.7 90 4.9 40.9 6.9 0.272
23:53 1016 30 845 24.95 6.6 43.8 90 5 41.1 6.934 0.273
23:54 1016 30 845 24.95 6.6 43.8 90 5.1 41.1 6.945 0.273
23:55 1016 30 845 24.95 6.5 43.8 90 5.1 41.1 6.922 0.273
23:56 1016 30 845 24.95 6.5 43.8 90 5.1 41.1 6.911 0.272
23:57 1016 30 845 24.95 6.5 43.7 90 5.1 41.1 6.888 0.271
23:58 1016 30 845 24.95 6.5 43.7 90 5.1 41.1 6.917 0.272
23:59 1016 30 845 24.95 6.5 43.8 90 5 41 6.922 0.273
24:00 1016 30 845 24.95 6.5 43.7 90 5 41.1 6.888 0.271